<?xml version="1.0" encoding="UTF-8" standalone="no" ?>
<gpx xmlns="http://www.topografix.com/GPX/1/1" xmlns:xsi="http://www.w3.org/2001/XMLSchema-instance" xsi:schemaLocation="http://www.topografix.com/GPX/1/1 http://www.topografix.com/GPX/1/1/gpx.xsd" version="1.1" creator="VisuGPX - https://www.visugpx.com">
  <metadata>
    <name>ACTIVE LOG154217</name>
    <desc><![CDATA[

]]></desc>
  </metadata>
  <trk>
    <name><![CDATA[ACTIVE LOG154217]]></name>
    <trkseg>
      <trkpt lat="49.01228" lon="0.70548">
        <ele>167</ele>
        <time>2012-05-12T13:42:17Z</time>
      </trkpt>
      <trkpt lat="49.01248" lon="0.70616">
        <ele>168</ele>
        <time>2012-05-12T13:42:37Z</time>
      </trkpt>
      <trkpt lat="49.01266" lon="0.70684">
        <ele>168</ele>
        <time>2012-05-12T13:42:53Z</time>
      </trkpt>
      <trkpt lat="49.01274" lon="0.70747">
        <ele>168</ele>
        <time>2012-05-12T13:43:10Z</time>
      </trkpt>
      <trkpt lat="49.01241" lon="0.70751">
        <ele>169</ele>
        <time>2012-05-12T13:45:06Z</time>
      </trkpt>
      <trkpt lat="49.01202" lon="0.70709">
        <ele>169</ele>
        <time>2012-05-12T13:45:18Z</time>
      </trkpt>
      <trkpt lat="49.01159" lon="0.70687">
        <ele>169</ele>
        <time>2012-05-12T13:45:30Z</time>
      </trkpt>
      <trkpt lat="49.01113" lon="0.70668">
        <ele>169</ele>
        <time>2012-05-12T13:45:43Z</time>
      </trkpt>
      <trkpt lat="49.01068" lon="0.70671">
        <ele>169</ele>
        <time>2012-05-12T13:45:55Z</time>
      </trkpt>
      <trkpt lat="49.01028" lon="0.70697">
        <ele>169</ele>
        <time>2012-05-12T13:46:10Z</time>
      </trkpt>
      <trkpt lat="49.00986" lon="0.70726">
        <ele>169</ele>
        <time>2012-05-12T13:46:22Z</time>
      </trkpt>
      <trkpt lat="49.00944" lon="0.70751">
        <ele>168</ele>
        <time>2012-05-12T13:46:33Z</time>
      </trkpt>
      <trkpt lat="49.00902" lon="0.70789">
        <ele>168</ele>
        <time>2012-05-12T13:46:45Z</time>
      </trkpt>
      <trkpt lat="49.0086" lon="0.70824">
        <ele>168</ele>
        <time>2012-05-12T13:46:56Z</time>
      </trkpt>
      <trkpt lat="49.0082" lon="0.7086">
        <ele>168</ele>
        <time>2012-05-12T13:47:06Z</time>
      </trkpt>
      <trkpt lat="49.00777" lon="0.70896">
        <ele>168</ele>
        <time>2012-05-12T13:47:16Z</time>
      </trkpt>
      <trkpt lat="49.00735" lon="0.70931">
        <ele>168</ele>
        <time>2012-05-12T13:47:25Z</time>
      </trkpt>
      <trkpt lat="49.0069" lon="0.70964">
        <ele>168</ele>
        <time>2012-05-12T13:47:34Z</time>
      </trkpt>
      <trkpt lat="49.00643" lon="0.70983">
        <ele>168</ele>
        <time>2012-05-12T13:47:43Z</time>
      </trkpt>
      <trkpt lat="49.00597" lon="0.70988">
        <ele>168</ele>
        <time>2012-05-12T13:47:51Z</time>
      </trkpt>
      <trkpt lat="49.0055" lon="0.70986">
        <ele>169</ele>
        <time>2012-05-12T13:47:59Z</time>
      </trkpt>
      <trkpt lat="49.00504" lon="0.70983">
        <ele>169</ele>
        <time>2012-05-12T13:48:07Z</time>
      </trkpt>
      <trkpt lat="49.00459" lon="0.70975">
        <ele>169</ele>
        <time>2012-05-12T13:48:15Z</time>
      </trkpt>
      <trkpt lat="49.00412" lon="0.70965">
        <ele>170</ele>
        <time>2012-05-12T13:48:23Z</time>
      </trkpt>
      <trkpt lat="49.00365" lon="0.70956">
        <ele>170</ele>
        <time>2012-05-12T13:48:31Z</time>
      </trkpt>
      <trkpt lat="49.00319" lon="0.70946">
        <ele>171</ele>
        <time>2012-05-12T13:48:39Z</time>
      </trkpt>
      <trkpt lat="49.0027" lon="0.70936">
        <ele>171</ele>
        <time>2012-05-12T13:48:48Z</time>
      </trkpt>
      <trkpt lat="49.00222" lon="0.70922">
        <ele>171</ele>
        <time>2012-05-12T13:48:57Z</time>
      </trkpt>
      <trkpt lat="49.00175" lon="0.70897">
        <ele>171</ele>
        <time>2012-05-12T13:49:06Z</time>
      </trkpt>
      <trkpt lat="49.00129" lon="0.70875">
        <ele>171</ele>
        <time>2012-05-12T13:49:15Z</time>
      </trkpt>
      <trkpt lat="49.00084" lon="0.70864">
        <ele>171</ele>
        <time>2012-05-12T13:49:23Z</time>
      </trkpt>
      <trkpt lat="49.00038" lon="0.7086">
        <ele>171</ele>
        <time>2012-05-12T13:49:31Z</time>
      </trkpt>
      <trkpt lat="48.99988" lon="0.70852">
        <ele>171</ele>
        <time>2012-05-12T13:49:40Z</time>
      </trkpt>
      <trkpt lat="48.99941" lon="0.7083">
        <ele>172</ele>
        <time>2012-05-12T13:49:47Z</time>
      </trkpt>
      <trkpt lat="48.99896" lon="0.70803">
        <ele>172</ele>
        <time>2012-05-12T13:49:54Z</time>
      </trkpt>
      <trkpt lat="48.99852" lon="0.70769">
        <ele>171</ele>
        <time>2012-05-12T13:50:02Z</time>
      </trkpt>
      <trkpt lat="48.99812" lon="0.70731">
        <ele>170</ele>
        <time>2012-05-12T13:50:11Z</time>
      </trkpt>
      <trkpt lat="48.99778" lon="0.70681">
        <ele>170</ele>
        <time>2012-05-12T13:50:22Z</time>
      </trkpt>
      <trkpt lat="48.99744" lon="0.70636">
        <ele>170</ele>
        <time>2012-05-12T13:50:33Z</time>
      </trkpt>
      <trkpt lat="48.99713" lon="0.70663">
        <ele>170</ele>
        <time>2012-05-12T13:50:47Z</time>
      </trkpt>
      <trkpt lat="48.99696" lon="0.70732">
        <ele>170</ele>
        <time>2012-05-12T13:50:57Z</time>
      </trkpt>
      <trkpt lat="48.99681" lon="0.708">
        <ele>170</ele>
        <time>2012-05-12T13:51:06Z</time>
      </trkpt>
      <trkpt lat="48.99656" lon="0.7086">
        <ele>170</ele>
        <time>2012-05-12T13:51:15Z</time>
      </trkpt>
      <trkpt lat="48.99618" lon="0.70908">
        <ele>171</ele>
        <time>2012-05-12T13:51:24Z</time>
      </trkpt>
      <trkpt lat="48.9958" lon="0.70954">
        <ele>170</ele>
        <time>2012-05-12T13:51:33Z</time>
      </trkpt>
      <trkpt lat="48.99539" lon="0.70997">
        <ele>170</ele>
        <time>2012-05-12T13:51:42Z</time>
      </trkpt>
      <trkpt lat="48.99505" lon="0.71042">
        <ele>169</ele>
        <time>2012-05-12T13:51:50Z</time>
      </trkpt>
      <trkpt lat="48.99473" lon="0.71092">
        <ele>170</ele>
        <time>2012-05-12T13:51:58Z</time>
      </trkpt>
      <trkpt lat="48.99441" lon="0.71143">
        <ele>170</ele>
        <time>2012-05-12T13:52:06Z</time>
      </trkpt>
      <trkpt lat="48.99406" lon="0.71198">
        <ele>170</ele>
        <time>2012-05-12T13:52:15Z</time>
      </trkpt>
      <trkpt lat="48.99375" lon="0.71255">
        <ele>169</ele>
        <time>2012-05-12T13:52:24Z</time>
      </trkpt>
      <trkpt lat="48.99348" lon="0.7131">
        <ele>169</ele>
        <time>2012-05-12T13:52:32Z</time>
      </trkpt>
      <trkpt lat="48.99321" lon="0.71365">
        <ele>169</ele>
        <time>2012-05-12T13:52:40Z</time>
      </trkpt>
      <trkpt lat="48.9929" lon="0.71425">
        <ele>169</ele>
        <time>2012-05-12T13:52:49Z</time>
      </trkpt>
      <trkpt lat="48.99261" lon="0.71479">
        <ele>169</ele>
        <time>2012-05-12T13:52:57Z</time>
      </trkpt>
      <trkpt lat="48.99235" lon="0.71544">
        <ele>169</ele>
        <time>2012-05-12T13:53:06Z</time>
      </trkpt>
      <trkpt lat="48.9921" lon="0.71605">
        <ele>169</ele>
        <time>2012-05-12T13:53:15Z</time>
      </trkpt>
      <trkpt lat="48.9918" lon="0.7166">
        <ele>169</ele>
        <time>2012-05-12T13:53:24Z</time>
      </trkpt>
      <trkpt lat="48.99159" lon="0.71722">
        <ele>170</ele>
        <time>2012-05-12T13:53:33Z</time>
      </trkpt>
      <trkpt lat="48.99138" lon="0.71785">
        <ele>169</ele>
        <time>2012-05-12T13:53:42Z</time>
      </trkpt>
      <trkpt lat="48.99118" lon="0.71848">
        <ele>169</ele>
        <time>2012-05-12T13:53:50Z</time>
      </trkpt>
      <trkpt lat="48.99097" lon="0.71912">
        <ele>168</ele>
        <time>2012-05-12T13:53:58Z</time>
      </trkpt>
      <trkpt lat="48.99072" lon="0.71969">
        <ele>169</ele>
        <time>2012-05-12T13:54:06Z</time>
      </trkpt>
      <trkpt lat="48.99082" lon="0.7204">
        <ele>169</ele>
        <time>2012-05-12T13:54:15Z</time>
      </trkpt>
      <trkpt lat="48.99078" lon="0.72107">
        <ele>168</ele>
        <time>2012-05-12T13:54:24Z</time>
      </trkpt>
      <trkpt lat="48.99037" lon="0.72148">
        <ele>167</ele>
        <time>2012-05-12T13:54:33Z</time>
      </trkpt>
      <trkpt lat="48.98999" lon="0.72194">
        <ele>168</ele>
        <time>2012-05-12T13:54:42Z</time>
      </trkpt>
      <trkpt lat="48.98984" lon="0.72265">
        <ele>168</ele>
        <time>2012-05-12T13:54:51Z</time>
      </trkpt>
      <trkpt lat="48.9897" lon="0.72338">
        <ele>167</ele>
        <time>2012-05-12T13:55:00Z</time>
      </trkpt>
      <trkpt lat="48.98948" lon="0.72405">
        <ele>167</ele>
        <time>2012-05-12T13:55:09Z</time>
      </trkpt>
      <trkpt lat="48.98929" lon="0.72469">
        <ele>167</ele>
        <time>2012-05-12T13:55:17Z</time>
      </trkpt>
      <trkpt lat="48.98915" lon="0.72535">
        <ele>166</ele>
        <time>2012-05-12T13:55:25Z</time>
      </trkpt>
      <trkpt lat="48.98905" lon="0.7261">
        <ele>166</ele>
        <time>2012-05-12T13:55:34Z</time>
      </trkpt>
      <trkpt lat="48.98892" lon="0.7268">
        <ele>166</ele>
        <time>2012-05-12T13:55:43Z</time>
      </trkpt>
      <trkpt lat="48.98875" lon="0.72745">
        <ele>166</ele>
        <time>2012-05-12T13:55:51Z</time>
      </trkpt>
      <trkpt lat="48.9886" lon="0.7281">
        <ele>166</ele>
        <time>2012-05-12T13:55:59Z</time>
      </trkpt>
      <trkpt lat="48.98843" lon="0.7288">
        <ele>167</ele>
        <time>2012-05-12T13:56:08Z</time>
      </trkpt>
      <trkpt lat="48.98848" lon="0.72947">
        <ele>170</ele>
        <time>2012-05-12T13:56:19Z</time>
      </trkpt>
      <trkpt lat="48.98848" lon="0.72972">
        <ele>171</ele>
        <time>2012-05-12T13:56:39Z</time>
      </trkpt>
      <trkpt lat="48.98803" lon="0.72992">
        <ele>170</ele>
        <time>2012-05-12T13:56:51Z</time>
      </trkpt>
      <trkpt lat="48.9876" lon="0.73016">
        <ele>170</ele>
        <time>2012-05-12T13:57:03Z</time>
      </trkpt>
      <trkpt lat="48.98724" lon="0.73059">
        <ele>171</ele>
        <time>2012-05-12T13:57:18Z</time>
      </trkpt>
      <trkpt lat="48.98692" lon="0.73107">
        <ele>171</ele>
        <time>2012-05-12T13:57:31Z</time>
      </trkpt>
      <trkpt lat="48.98665" lon="0.73169">
        <ele>171</ele>
        <time>2012-05-12T13:57:44Z</time>
      </trkpt>
      <trkpt lat="48.98647" lon="0.73239">
        <ele>172</ele>
        <time>2012-05-12T13:57:57Z</time>
      </trkpt>
      <trkpt lat="48.98633" lon="0.73305">
        <ele>173</ele>
        <time>2012-05-12T13:58:09Z</time>
      </trkpt>
      <trkpt lat="48.98613" lon="0.73369">
        <ele>173</ele>
        <time>2012-05-12T13:58:21Z</time>
      </trkpt>
      <trkpt lat="48.98591" lon="0.73431">
        <ele>174</ele>
        <time>2012-05-12T13:58:33Z</time>
      </trkpt>
      <trkpt lat="48.9857" lon="0.73494">
        <ele>175</ele>
        <time>2012-05-12T13:58:45Z</time>
      </trkpt>
      <trkpt lat="48.9855" lon="0.73559">
        <ele>175</ele>
        <time>2012-05-12T13:58:57Z</time>
      </trkpt>
      <trkpt lat="48.98536" lon="0.73628">
        <ele>175</ele>
        <time>2012-05-12T13:59:09Z</time>
      </trkpt>
      <trkpt lat="48.98523" lon="0.73698">
        <ele>175</ele>
        <time>2012-05-12T13:59:21Z</time>
      </trkpt>
      <trkpt lat="48.9851" lon="0.73765">
        <ele>176</ele>
        <time>2012-05-12T13:59:33Z</time>
      </trkpt>
      <trkpt lat="48.98496" lon="0.7383">
        <ele>177</ele>
        <time>2012-05-12T13:59:45Z</time>
      </trkpt>
      <trkpt lat="48.98481" lon="0.73895">
        <ele>177</ele>
        <time>2012-05-12T13:59:57Z</time>
      </trkpt>
      <trkpt lat="48.98467" lon="0.73958">
        <ele>178</ele>
        <time>2012-05-12T14:00:13Z</time>
      </trkpt>
      <trkpt lat="48.98421" lon="0.73984">
        <ele>178</ele>
        <time>2012-05-12T14:01:39Z</time>
      </trkpt>
      <trkpt lat="48.98373" lon="0.74006">
        <ele>178</ele>
        <time>2012-05-12T14:01:50Z</time>
      </trkpt>
      <trkpt lat="48.98327" lon="0.74012">
        <ele>178</ele>
        <time>2012-05-12T14:02:00Z</time>
      </trkpt>
      <trkpt lat="48.98281" lon="0.74022">
        <ele>178</ele>
        <time>2012-05-12T14:02:10Z</time>
      </trkpt>
      <trkpt lat="48.98234" lon="0.74036">
        <ele>178</ele>
        <time>2012-05-12T14:02:20Z</time>
      </trkpt>
      <trkpt lat="48.9819" lon="0.74064">
        <ele>179</ele>
        <time>2012-05-12T14:02:30Z</time>
      </trkpt>
      <trkpt lat="48.98148" lon="0.74086">
        <ele>179</ele>
        <time>2012-05-12T14:02:41Z</time>
      </trkpt>
      <trkpt lat="48.98105" lon="0.74104">
        <ele>179</ele>
        <time>2012-05-12T14:02:57Z</time>
      </trkpt>
      <trkpt lat="48.98058" lon="0.74122">
        <ele>178</ele>
        <time>2012-05-12T14:03:08Z</time>
      </trkpt>
      <trkpt lat="48.98011" lon="0.74135">
        <ele>177</ele>
        <time>2012-05-12T14:03:19Z</time>
      </trkpt>
      <trkpt lat="48.97967" lon="0.74148">
        <ele>177</ele>
        <time>2012-05-12T14:03:29Z</time>
      </trkpt>
      <trkpt lat="48.97921" lon="0.74159">
        <ele>176</ele>
        <time>2012-05-12T14:03:39Z</time>
      </trkpt>
      <trkpt lat="48.97876" lon="0.74172">
        <ele>176</ele>
        <time>2012-05-12T14:03:49Z</time>
      </trkpt>
      <trkpt lat="48.97863" lon="0.74221">
        <ele>175</ele>
        <time>2012-05-12T14:04:01Z</time>
      </trkpt>
      <trkpt lat="48.97874" lon="0.74294">
        <ele>175</ele>
        <time>2012-05-12T14:04:12Z</time>
      </trkpt>
      <trkpt lat="48.97895" lon="0.74363">
        <ele>175</ele>
        <time>2012-05-12T14:04:23Z</time>
      </trkpt>
      <trkpt lat="48.97922" lon="0.74428">
        <ele>175</ele>
        <time>2012-05-12T14:04:33Z</time>
      </trkpt>
      <trkpt lat="48.97938" lon="0.74494">
        <ele>174</ele>
        <time>2012-05-12T14:04:42Z</time>
      </trkpt>
      <trkpt lat="48.97943" lon="0.74565">
        <ele>174</ele>
        <time>2012-05-12T14:04:51Z</time>
      </trkpt>
      <trkpt lat="48.97944" lon="0.74639">
        <ele>173</ele>
        <time>2012-05-12T14:05:00Z</time>
      </trkpt>
      <trkpt lat="48.97944" lon="0.74713">
        <ele>173</ele>
        <time>2012-05-12T14:05:09Z</time>
      </trkpt>
      <trkpt lat="48.97945" lon="0.74784">
        <ele>173</ele>
        <time>2012-05-12T14:05:18Z</time>
      </trkpt>
      <trkpt lat="48.97946" lon="0.74854">
        <ele>172</ele>
        <time>2012-05-12T14:05:27Z</time>
      </trkpt>
      <trkpt lat="48.97949" lon="0.74925">
        <ele>171</ele>
        <time>2012-05-12T14:05:37Z</time>
      </trkpt>
      <trkpt lat="48.97958" lon="0.74997">
        <ele>171</ele>
        <time>2012-05-12T14:05:47Z</time>
      </trkpt>
      <trkpt lat="48.97967" lon="0.75067">
        <ele>171</ele>
        <time>2012-05-12T14:05:57Z</time>
      </trkpt>
      <trkpt lat="48.97974" lon="0.7514">
        <ele>170</ele>
        <time>2012-05-12T14:06:07Z</time>
      </trkpt>
      <trkpt lat="48.97982" lon="0.75212">
        <ele>169</ele>
        <time>2012-05-12T14:06:17Z</time>
      </trkpt>
      <trkpt lat="48.97989" lon="0.75282">
        <ele>168</ele>
        <time>2012-05-12T14:06:26Z</time>
      </trkpt>
      <trkpt lat="48.97997" lon="0.75354">
        <ele>167</ele>
        <time>2012-05-12T14:06:36Z</time>
      </trkpt>
      <trkpt lat="48.98003" lon="0.75422">
        <ele>167</ele>
        <time>2012-05-12T14:06:47Z</time>
      </trkpt>
      <trkpt lat="48.98005" lon="0.75497">
        <ele>166</ele>
        <time>2012-05-12T14:06:58Z</time>
      </trkpt>
      <trkpt lat="48.98008" lon="0.75566">
        <ele>166</ele>
        <time>2012-05-12T14:07:08Z</time>
      </trkpt>
      <trkpt lat="48.98025" lon="0.75634">
        <ele>165</ele>
        <time>2012-05-12T14:07:20Z</time>
      </trkpt>
      <trkpt lat="48.98044" lon="0.75698">
        <ele>165</ele>
        <time>2012-05-12T14:07:36Z</time>
      </trkpt>
      <trkpt lat="48.98059" lon="0.75763">
        <ele>164</ele>
        <time>2012-05-12T14:07:53Z</time>
      </trkpt>
      <trkpt lat="48.98074" lon="0.75833">
        <ele>163</ele>
        <time>2012-05-12T14:08:09Z</time>
      </trkpt>
      <trkpt lat="48.98087" lon="0.75904">
        <ele>163</ele>
        <time>2012-05-12T14:08:30Z</time>
      </trkpt>
      <trkpt lat="48.98097" lon="0.75978">
        <ele>163</ele>
        <time>2012-05-12T14:08:42Z</time>
      </trkpt>
      <trkpt lat="48.98095" lon="0.76048">
        <ele>162</ele>
        <time>2012-05-12T14:08:55Z</time>
      </trkpt>
      <trkpt lat="48.98089" lon="0.76116">
        <ele>162</ele>
        <time>2012-05-12T14:09:07Z</time>
      </trkpt>
      <trkpt lat="48.98049" lon="0.7611">
        <ele>162</ele>
        <time>2012-05-12T14:09:29Z</time>
      </trkpt>
      <trkpt lat="48.98085" lon="0.76136">
        <ele>162</ele>
        <time>2012-05-12T14:09:44Z</time>
      </trkpt>
      <trkpt lat="48.9807" lon="0.76202">
        <ele>163</ele>
        <time>2012-05-12T14:09:54Z</time>
      </trkpt>
      <trkpt lat="48.98049" lon="0.76266">
        <ele>166</ele>
        <time>2012-05-12T14:10:04Z</time>
      </trkpt>
      <trkpt lat="48.98021" lon="0.76327">
        <ele>165</ele>
        <time>2012-05-12T14:10:14Z</time>
      </trkpt>
      <trkpt lat="48.97998" lon="0.76393">
        <ele>165</ele>
        <time>2012-05-12T14:10:25Z</time>
      </trkpt>
      <trkpt lat="48.97982" lon="0.76462">
        <ele>166</ele>
        <time>2012-05-12T14:10:37Z</time>
      </trkpt>
      <trkpt lat="48.9796" lon="0.76531">
        <ele>166</ele>
        <time>2012-05-12T14:10:48Z</time>
      </trkpt>
      <trkpt lat="48.97946" lon="0.76605">
        <ele>167</ele>
        <time>2012-05-12T14:10:58Z</time>
      </trkpt>
      <trkpt lat="48.97931" lon="0.76672">
        <ele>167</ele>
        <time>2012-05-12T14:11:08Z</time>
      </trkpt>
      <trkpt lat="48.97917" lon="0.76738">
        <ele>168</ele>
        <time>2012-05-12T14:11:18Z</time>
      </trkpt>
      <trkpt lat="48.979" lon="0.76803">
        <ele>166</ele>
        <time>2012-05-12T14:11:27Z</time>
      </trkpt>
      <trkpt lat="48.97884" lon="0.76873">
        <ele>165</ele>
        <time>2012-05-12T14:11:36Z</time>
      </trkpt>
      <trkpt lat="48.97873" lon="0.76943">
        <ele>164</ele>
        <time>2012-05-12T14:11:45Z</time>
      </trkpt>
      <trkpt lat="48.97836" lon="0.76933">
        <ele>165</ele>
        <time>2012-05-12T14:11:57Z</time>
      </trkpt>
      <trkpt lat="48.97799" lon="0.76879">
        <ele>165</ele>
        <time>2012-05-12T14:12:06Z</time>
      </trkpt>
      <trkpt lat="48.97755" lon="0.76845">
        <ele>165</ele>
        <time>2012-05-12T14:12:14Z</time>
      </trkpt>
      <trkpt lat="48.97707" lon="0.76823">
        <ele>162</ele>
        <time>2012-05-12T14:12:22Z</time>
      </trkpt>
      <trkpt lat="48.97665" lon="0.76792">
        <ele>160</ele>
        <time>2012-05-12T14:12:29Z</time>
      </trkpt>
      <trkpt lat="48.97663" lon="0.76726">
        <ele>158</ele>
        <time>2012-05-12T14:12:35Z</time>
      </trkpt>
      <trkpt lat="48.97684" lon="0.76658">
        <ele>159</ele>
        <time>2012-05-12T14:12:41Z</time>
      </trkpt>
      <trkpt lat="48.97687" lon="0.76586">
        <ele>158</ele>
        <time>2012-05-12T14:12:47Z</time>
      </trkpt>
      <trkpt lat="48.97654" lon="0.76538">
        <ele>157</ele>
        <time>2012-05-12T14:12:54Z</time>
      </trkpt>
      <trkpt lat="48.97607" lon="0.76514">
        <ele>158</ele>
        <time>2012-05-12T14:13:03Z</time>
      </trkpt>
      <trkpt lat="48.97565" lon="0.76493">
        <ele>160</ele>
        <time>2012-05-12T14:13:13Z</time>
      </trkpt>
      <trkpt lat="48.97519" lon="0.76469">
        <ele>161</ele>
        <time>2012-05-12T14:13:24Z</time>
      </trkpt>
      <trkpt lat="48.97478" lon="0.76478">
        <ele>162</ele>
        <time>2012-05-12T14:13:34Z</time>
      </trkpt>
      <trkpt lat="48.97436" lon="0.76482">
        <ele>163</ele>
        <time>2012-05-12T14:13:44Z</time>
      </trkpt>
      <trkpt lat="48.97397" lon="0.76435">
        <ele>164</ele>
        <time>2012-05-12T14:13:54Z</time>
      </trkpt>
      <trkpt lat="48.97356" lon="0.76392">
        <ele>164</ele>
        <time>2012-05-12T14:14:04Z</time>
      </trkpt>
      <trkpt lat="48.97308" lon="0.7637">
        <ele>163</ele>
        <time>2012-05-12T14:14:14Z</time>
      </trkpt>
      <trkpt lat="48.97259" lon="0.76362">
        <ele>163</ele>
        <time>2012-05-12T14:14:24Z</time>
      </trkpt>
      <trkpt lat="48.97209" lon="0.76353">
        <ele>162</ele>
        <time>2012-05-12T14:14:33Z</time>
      </trkpt>
      <trkpt lat="48.97165" lon="0.76335">
        <ele>162</ele>
        <time>2012-05-12T14:14:41Z</time>
      </trkpt>
      <trkpt lat="48.97127" lon="0.76292">
        <ele>161</ele>
        <time>2012-05-12T14:14:50Z</time>
      </trkpt>
      <trkpt lat="48.97082" lon="0.7629">
        <ele>156</ele>
        <time>2012-05-12T14:14:59Z</time>
      </trkpt>
      <trkpt lat="48.97042" lon="0.7632">
        <ele>155</ele>
        <time>2012-05-12T14:15:08Z</time>
      </trkpt>
      <trkpt lat="48.96993" lon="0.76341">
        <ele>148</ele>
        <time>2012-05-12T14:15:33Z</time>
      </trkpt>
      <trkpt lat="48.96983" lon="0.76418">
        <ele>145</ele>
        <time>2012-05-12T14:15:41Z</time>
      </trkpt>
      <trkpt lat="48.96977" lon="0.76505">
        <ele>144</ele>
        <time>2012-05-12T14:15:49Z</time>
      </trkpt>
      <trkpt lat="48.96972" lon="0.76597">
        <ele>140</ele>
        <time>2012-05-12T14:15:56Z</time>
      </trkpt>
      <trkpt lat="48.96991" lon="0.76678">
        <ele>139</ele>
        <time>2012-05-12T14:16:03Z</time>
      </trkpt>
      <trkpt lat="48.97006" lon="0.76748">
        <ele>139</ele>
        <time>2012-05-12T14:16:11Z</time>
      </trkpt>
      <trkpt lat="48.97029" lon="0.76817">
        <ele>140</ele>
        <time>2012-05-12T14:16:20Z</time>
      </trkpt>
      <trkpt lat="48.97047" lon="0.76882">
        <ele>137</ele>
        <time>2012-05-12T14:16:35Z</time>
      </trkpt>
      <trkpt lat="48.97074" lon="0.76937">
        <ele>136</ele>
        <time>2012-05-12T14:16:47Z</time>
      </trkpt>
      <trkpt lat="48.97103" lon="0.76992">
        <ele>141</ele>
        <time>2012-05-12T14:16:58Z</time>
      </trkpt>
      <trkpt lat="48.97132" lon="0.77052">
        <ele>140</ele>
        <time>2012-05-12T14:17:07Z</time>
      </trkpt>
      <trkpt lat="48.97162" lon="0.7711">
        <ele>138</ele>
        <time>2012-05-12T14:17:17Z</time>
      </trkpt>
      <trkpt lat="48.97192" lon="0.77167">
        <ele>140</ele>
        <time>2012-05-12T14:17:27Z</time>
      </trkpt>
      <trkpt lat="48.97222" lon="0.77223">
        <ele>141</ele>
        <time>2012-05-12T14:17:37Z</time>
      </trkpt>
      <trkpt lat="48.97253" lon="0.77277">
        <ele>142</ele>
        <time>2012-05-12T14:17:47Z</time>
      </trkpt>
      <trkpt lat="48.97289" lon="0.77323">
        <ele>140</ele>
        <time>2012-05-12T14:17:57Z</time>
      </trkpt>
      <trkpt lat="48.97325" lon="0.77368">
        <ele>136</ele>
        <time>2012-05-12T14:18:07Z</time>
      </trkpt>
      <trkpt lat="48.97365" lon="0.77414">
        <ele>141</ele>
        <time>2012-05-12T14:18:17Z</time>
      </trkpt>
      <trkpt lat="48.97403" lon="0.77461">
        <ele>136</ele>
        <time>2012-05-12T14:18:26Z</time>
      </trkpt>
      <trkpt lat="48.97439" lon="0.77506">
        <ele>136</ele>
        <time>2012-05-12T14:18:35Z</time>
      </trkpt>
      <trkpt lat="48.97476" lon="0.77559">
        <ele>135</ele>
        <time>2012-05-12T14:18:45Z</time>
      </trkpt>
      <trkpt lat="48.97511" lon="0.77612">
        <ele>135</ele>
        <time>2012-05-12T14:18:55Z</time>
      </trkpt>
      <trkpt lat="48.97534" lon="0.77673">
        <ele>132</ele>
        <time>2012-05-12T14:19:05Z</time>
      </trkpt>
      <trkpt lat="48.97566" lon="0.77726">
        <ele>133</ele>
        <time>2012-05-12T14:19:15Z</time>
      </trkpt>
      <trkpt lat="48.97598" lon="0.77771">
        <ele>137</ele>
        <time>2012-05-12T14:28:53Z</time>
      </trkpt>
      <trkpt lat="48.97633" lon="0.77816">
        <ele>137</ele>
        <time>2012-05-12T14:29:06Z</time>
      </trkpt>
      <trkpt lat="48.97671" lon="0.77856">
        <ele>138</ele>
        <time>2012-05-12T14:29:15Z</time>
      </trkpt>
      <trkpt lat="48.97711" lon="0.77899">
        <ele>138</ele>
        <time>2012-05-12T14:29:24Z</time>
      </trkpt>
      <trkpt lat="48.97747" lon="0.77949">
        <ele>133</ele>
        <time>2012-05-12T14:29:33Z</time>
      </trkpt>
      <trkpt lat="48.97774" lon="0.78005">
        <ele>134</ele>
        <time>2012-05-12T14:29:41Z</time>
      </trkpt>
      <trkpt lat="48.97798" lon="0.78067">
        <ele>134</ele>
        <time>2012-05-12T14:29:49Z</time>
      </trkpt>
      <trkpt lat="48.97822" lon="0.78126">
        <ele>130</ele>
        <time>2012-05-12T14:29:57Z</time>
      </trkpt>
      <trkpt lat="48.97852" lon="0.78185">
        <ele>132</ele>
        <time>2012-05-12T14:30:06Z</time>
      </trkpt>
      <trkpt lat="48.9788" lon="0.78239">
        <ele>132</ele>
        <time>2012-05-12T14:30:15Z</time>
      </trkpt>
      <trkpt lat="48.97901" lon="0.78298">
        <ele>130</ele>
        <time>2012-05-12T14:30:27Z</time>
      </trkpt>
      <trkpt lat="48.97926" lon="0.78266">
        <ele>135</ele>
        <time>2012-05-12T14:31:12Z</time>
      </trkpt>
      <trkpt lat="48.9797" lon="0.78237">
        <ele>142</ele>
        <time>2012-05-12T14:31:27Z</time>
      </trkpt>
      <trkpt lat="48.98011" lon="0.78206">
        <ele>149</ele>
        <time>2012-05-12T14:31:41Z</time>
      </trkpt>
      <trkpt lat="48.98049" lon="0.78166">
        <ele>151</ele>
        <time>2012-05-12T14:31:55Z</time>
      </trkpt>
      <trkpt lat="48.98094" lon="0.78145">
        <ele>151</ele>
        <time>2012-05-12T14:32:11Z</time>
      </trkpt>
      <trkpt lat="48.98136" lon="0.78166">
        <ele>152</ele>
        <time>2012-05-12T14:32:27Z</time>
      </trkpt>
      <trkpt lat="48.98181" lon="0.78181">
        <ele>155</ele>
        <time>2012-05-12T14:32:46Z</time>
      </trkpt>
      <trkpt lat="48.98228" lon="0.782">
        <ele>157</ele>
        <time>2012-05-12T14:33:03Z</time>
      </trkpt>
      <trkpt lat="48.98275" lon="0.78211">
        <ele>159</ele>
        <time>2012-05-12T14:33:19Z</time>
      </trkpt>
      <trkpt lat="48.98318" lon="0.78241">
        <ele>161</ele>
        <time>2012-05-12T14:33:34Z</time>
      </trkpt>
      <trkpt lat="48.98364" lon="0.78252">
        <ele>162</ele>
        <time>2012-05-12T14:33:47Z</time>
      </trkpt>
      <trkpt lat="48.98411" lon="0.78243">
        <ele>160</ele>
        <time>2012-05-12T14:33:59Z</time>
      </trkpt>
      <trkpt lat="48.98456" lon="0.78256">
        <ele>160</ele>
        <time>2012-05-12T14:34:12Z</time>
      </trkpt>
      <trkpt lat="48.98442" lon="0.7832">
        <ele>160</ele>
        <time>2012-05-12T14:34:25Z</time>
      </trkpt>
      <trkpt lat="48.98487" lon="0.7834">
        <ele>159</ele>
        <time>2012-05-12T14:34:41Z</time>
      </trkpt>
      <trkpt lat="48.98521" lon="0.78364">
        <ele>160</ele>
        <time>2012-05-12T14:34:52Z</time>
      </trkpt>
      <trkpt lat="48.98533" lon="0.78433">
        <ele>159</ele>
        <time>2012-05-12T14:35:06Z</time>
      </trkpt>
      <trkpt lat="48.98553" lon="0.785">
        <ele>157</ele>
        <time>2012-05-12T14:35:17Z</time>
      </trkpt>
      <trkpt lat="48.98588" lon="0.78555">
        <ele>158</ele>
        <time>2012-05-12T14:35:26Z</time>
      </trkpt>
      <trkpt lat="48.9863" lon="0.786">
        <ele>156</ele>
        <time>2012-05-12T14:35:34Z</time>
      </trkpt>
      <trkpt lat="48.98676" lon="0.78628">
        <ele>157</ele>
        <time>2012-05-12T14:35:43Z</time>
      </trkpt>
      <trkpt lat="48.98724" lon="0.78658">
        <ele>156</ele>
        <time>2012-05-12T14:35:53Z</time>
      </trkpt>
      <trkpt lat="48.98767" lon="0.7869">
        <ele>152</ele>
        <time>2012-05-12T14:36:00Z</time>
      </trkpt>
      <trkpt lat="48.98818" lon="0.78709">
        <ele>150</ele>
        <time>2012-05-12T14:36:07Z</time>
      </trkpt>
      <trkpt lat="48.98862" lon="0.78727">
        <ele>146</ele>
        <time>2012-05-12T14:36:19Z</time>
      </trkpt>
      <trkpt lat="48.98891" lon="0.78787">
        <ele>137</ele>
        <time>2012-05-12T14:36:50Z</time>
      </trkpt>
      <trkpt lat="48.98926" lon="0.78846">
        <ele>128</ele>
        <time>2012-05-12T14:36:58Z</time>
      </trkpt>
      <trkpt lat="48.98972" lon="0.78858">
        <ele>126</ele>
        <time>2012-05-12T14:37:09Z</time>
      </trkpt>
      <trkpt lat="48.99032" lon="0.78863">
        <ele>126</ele>
        <time>2012-05-12T14:37:19Z</time>
      </trkpt>
      <trkpt lat="48.99089" lon="0.78875">
        <ele>126</ele>
        <time>2012-05-12T14:37:28Z</time>
      </trkpt>
      <trkpt lat="48.99143" lon="0.78869">
        <ele>125</ele>
        <time>2012-05-12T14:37:38Z</time>
      </trkpt>
      <trkpt lat="48.99196" lon="0.78867">
        <ele>125</ele>
        <time>2012-05-12T14:37:49Z</time>
      </trkpt>
      <trkpt lat="48.99253" lon="0.78872">
        <ele>125</ele>
        <time>2012-05-12T14:38:31Z</time>
      </trkpt>
      <trkpt lat="48.99308" lon="0.78884">
        <ele>125</ele>
        <time>2012-05-12T14:38:44Z</time>
      </trkpt>
      <trkpt lat="48.99357" lon="0.78887">
        <ele>128</ele>
        <time>2012-05-12T14:38:55Z</time>
      </trkpt>
      <trkpt lat="48.99408" lon="0.78906">
        <ele>130</ele>
        <time>2012-05-12T14:39:07Z</time>
      </trkpt>
      <trkpt lat="48.99456" lon="0.78931">
        <ele>129</ele>
        <time>2012-05-12T14:39:19Z</time>
      </trkpt>
      <trkpt lat="48.99502" lon="0.78974">
        <ele>134</ele>
        <time>2012-05-12T14:39:32Z</time>
      </trkpt>
      <trkpt lat="48.99542" lon="0.7901">
        <ele>132</ele>
        <time>2012-05-12T14:39:47Z</time>
      </trkpt>
      <trkpt lat="48.99534" lon="0.7894">
        <ele>138</ele>
        <time>2012-05-12T14:40:24Z</time>
      </trkpt>
      <trkpt lat="48.99527" lon="0.78866">
        <ele>143</ele>
        <time>2012-05-12T14:40:42Z</time>
      </trkpt>
      <trkpt lat="48.99531" lon="0.78773">
        <ele>149</ele>
        <time>2012-05-12T14:41:25Z</time>
      </trkpt>
      <trkpt lat="48.99531" lon="0.78681">
        <ele>152</ele>
        <time>2012-05-12T14:42:01Z</time>
      </trkpt>
      <trkpt lat="48.9954" lon="0.78609">
        <ele>153</ele>
        <time>2012-05-12T14:42:31Z</time>
      </trkpt>
      <trkpt lat="48.99567" lon="0.78547">
        <ele>154</ele>
        <time>2012-05-12T14:42:58Z</time>
      </trkpt>
      <trkpt lat="48.99604" lon="0.78498">
        <ele>158</ele>
        <time>2012-05-12T14:43:18Z</time>
      </trkpt>
      <trkpt lat="48.9965" lon="0.78464">
        <ele>159</ele>
        <time>2012-05-12T14:43:35Z</time>
      </trkpt>
      <trkpt lat="48.99695" lon="0.78429">
        <ele>160</ele>
        <time>2012-05-12T14:43:48Z</time>
      </trkpt>
      <trkpt lat="48.99742" lon="0.78411">
        <ele>160</ele>
        <time>2012-05-12T14:45:37Z</time>
      </trkpt>
      <trkpt lat="48.99791" lon="0.78404">
        <ele>160</ele>
        <time>2012-05-12T14:45:50Z</time>
      </trkpt>
      <trkpt lat="48.99837" lon="0.78373">
        <ele>159</ele>
        <time>2012-05-12T14:46:03Z</time>
      </trkpt>
      <trkpt lat="48.99885" lon="0.78342">
        <ele>159</ele>
        <time>2012-05-12T14:46:15Z</time>
      </trkpt>
      <trkpt lat="48.99929" lon="0.78309">
        <ele>157</ele>
        <time>2012-05-12T14:46:27Z</time>
      </trkpt>
      <trkpt lat="48.99971" lon="0.78277">
        <ele>156</ele>
        <time>2012-05-12T14:46:37Z</time>
      </trkpt>
      <trkpt lat="49.00011" lon="0.78245">
        <ele>158</ele>
        <time>2012-05-12T14:46:47Z</time>
      </trkpt>
      <trkpt lat="49.00054" lon="0.78209">
        <ele>158</ele>
        <time>2012-05-12T14:46:58Z</time>
      </trkpt>
      <trkpt lat="49.00096" lon="0.78179">
        <ele>159</ele>
        <time>2012-05-12T14:47:08Z</time>
      </trkpt>
      <trkpt lat="49.00143" lon="0.78188">
        <ele>159</ele>
        <time>2012-05-12T14:47:18Z</time>
      </trkpt>
      <trkpt lat="49.00194" lon="0.78201">
        <ele>159</ele>
        <time>2012-05-12T14:47:27Z</time>
      </trkpt>
      <trkpt lat="49.0024" lon="0.7821">
        <ele>158</ele>
        <time>2012-05-12T14:47:36Z</time>
      </trkpt>
      <trkpt lat="49.00287" lon="0.78226">
        <ele>156</ele>
        <time>2012-05-12T14:47:45Z</time>
      </trkpt>
      <trkpt lat="49.00336" lon="0.78241">
        <ele>155</ele>
        <time>2012-05-12T14:47:54Z</time>
      </trkpt>
      <trkpt lat="49.0038" lon="0.78255">
        <ele>151</ele>
        <time>2012-05-12T14:48:02Z</time>
      </trkpt>
      <trkpt lat="49.00429" lon="0.78278">
        <ele>153</ele>
        <time>2012-05-12T14:48:19Z</time>
      </trkpt>
      <trkpt lat="49.00459" lon="0.78331">
        <ele>150</ele>
        <time>2012-05-12T14:54:06Z</time>
      </trkpt>
      <trkpt lat="49.00498" lon="0.78382">
        <ele>143</ele>
        <time>2012-05-12T14:54:15Z</time>
      </trkpt>
      <trkpt lat="49.00534" lon="0.78439">
        <ele>142</ele>
        <time>2012-05-12T14:54:22Z</time>
      </trkpt>
      <trkpt lat="49.00566" lon="0.78495">
        <ele>142</ele>
        <time>2012-05-12T14:54:28Z</time>
      </trkpt>
      <trkpt lat="49.00596" lon="0.78563">
        <ele>137</ele>
        <time>2012-05-12T14:54:38Z</time>
      </trkpt>
      <trkpt lat="49.00626" lon="0.78647">
        <ele>132</ele>
        <time>2012-05-12T14:54:47Z</time>
      </trkpt>
      <trkpt lat="49.00657" lon="0.78722">
        <ele>126</ele>
        <time>2012-05-12T14:54:54Z</time>
      </trkpt>
      <trkpt lat="49.00686" lon="0.78791">
        <ele>131</ele>
        <time>2012-05-12T14:55:01Z</time>
      </trkpt>
      <trkpt lat="49.00703" lon="0.78867">
        <ele>128</ele>
        <time>2012-05-12T14:55:11Z</time>
      </trkpt>
      <trkpt lat="49.00725" lon="0.78939">
        <ele>126</ele>
        <time>2012-05-12T14:55:20Z</time>
      </trkpt>
      <trkpt lat="49.00741" lon="0.79007">
        <ele>124</ele>
        <time>2012-05-12T14:55:29Z</time>
      </trkpt>
      <trkpt lat="49.00762" lon="0.79078">
        <ele>127</ele>
        <time>2012-05-12T14:55:39Z</time>
      </trkpt>
      <trkpt lat="49.00782" lon="0.79142">
        <ele>127</ele>
        <time>2012-05-12T14:55:49Z</time>
      </trkpt>
      <trkpt lat="49.00805" lon="0.7921">
        <ele>126</ele>
        <time>2012-05-12T14:56:01Z</time>
      </trkpt>
      <trkpt lat="49.0082" lon="0.79285">
        <ele>122</ele>
        <time>2012-05-12T14:56:13Z</time>
      </trkpt>
      <trkpt lat="49.00832" lon="0.79358">
        <ele>120</ele>
        <time>2012-05-12T14:56:23Z</time>
      </trkpt>
      <trkpt lat="49.00853" lon="0.79428">
        <ele>125</ele>
        <time>2012-05-12T14:56:34Z</time>
      </trkpt>
      <trkpt lat="49.00872" lon="0.79506">
        <ele>124</ele>
        <time>2012-05-12T14:56:46Z</time>
      </trkpt>
      <trkpt lat="49.00885" lon="0.79583">
        <ele>124</ele>
        <time>2012-05-12T14:56:56Z</time>
      </trkpt>
      <trkpt lat="49.00889" lon="0.79653">
        <ele>123</ele>
        <time>2012-05-12T14:57:06Z</time>
      </trkpt>
      <trkpt lat="49.00895" lon="0.79729">
        <ele>123</ele>
        <time>2012-05-12T14:57:16Z</time>
      </trkpt>
      <trkpt lat="49.00896" lon="0.79801">
        <ele>122</ele>
        <time>2012-05-12T14:57:26Z</time>
      </trkpt>
      <trkpt lat="49.00901" lon="0.7987">
        <ele>119</ele>
        <time>2012-05-12T14:57:36Z</time>
      </trkpt>
      <trkpt lat="49.00916" lon="0.7994">
        <ele>117</ele>
        <time>2012-05-12T14:57:47Z</time>
      </trkpt>
      <trkpt lat="49.00914" lon="0.80009">
        <ele>117</ele>
        <time>2012-05-12T14:57:58Z</time>
      </trkpt>
      <trkpt lat="49.00935" lon="0.80059">
        <ele>125</ele>
        <time>2012-05-12T14:58:13Z</time>
      </trkpt>
      <trkpt lat="49.00935" lon="0.80129">
        <ele>125</ele>
        <time>2012-05-12T14:59:07Z</time>
      </trkpt>
      <trkpt lat="49.00963" lon="0.8019">
        <ele>125</ele>
        <time>2012-05-12T14:59:23Z</time>
      </trkpt>
      <trkpt lat="49.00994" lon="0.80263">
        <ele>124</ele>
        <time>2012-05-12T14:59:36Z</time>
      </trkpt>
      <trkpt lat="49.01021" lon="0.80333">
        <ele>128</ele>
        <time>2012-05-12T14:59:45Z</time>
      </trkpt>
      <trkpt lat="49.01057" lon="0.80384">
        <ele>126</ele>
        <time>2012-05-12T14:59:56Z</time>
      </trkpt>
      <trkpt lat="49.01092" lon="0.80439">
        <ele>128</ele>
        <time>2012-05-12T15:00:07Z</time>
      </trkpt>
      <trkpt lat="49.01131" lon="0.80495">
        <ele>128</ele>
        <time>2012-05-12T15:00:15Z</time>
      </trkpt>
      <trkpt lat="49.01173" lon="0.80542">
        <ele>126</ele>
        <time>2012-05-12T15:00:23Z</time>
      </trkpt>
      <trkpt lat="49.01207" lon="0.80591">
        <ele>116</ele>
        <time>2012-05-12T15:00:31Z</time>
      </trkpt>
      <trkpt lat="49.01254" lon="0.80617">
        <ele>119</ele>
        <time>2012-05-12T15:00:40Z</time>
      </trkpt>
      <trkpt lat="49.013" lon="0.80634">
        <ele>119</ele>
        <time>2012-05-12T15:00:51Z</time>
      </trkpt>
      <trkpt lat="49.01349" lon="0.80654">
        <ele>120</ele>
        <time>2012-05-12T15:01:02Z</time>
      </trkpt>
      <trkpt lat="49.01393" lon="0.80682">
        <ele>117</ele>
        <time>2012-05-12T15:01:12Z</time>
      </trkpt>
      <trkpt lat="49.01433" lon="0.80714">
        <ele>117</ele>
        <time>2012-05-12T15:01:22Z</time>
      </trkpt>
      <trkpt lat="49.01478" lon="0.80738">
        <ele>116</ele>
        <time>2012-05-12T15:01:32Z</time>
      </trkpt>
      <trkpt lat="49.01526" lon="0.80753">
        <ele>115</ele>
        <time>2012-05-12T15:01:42Z</time>
      </trkpt>
      <trkpt lat="49.01572" lon="0.80753">
        <ele>115</ele>
        <time>2012-05-12T15:01:52Z</time>
      </trkpt>
      <trkpt lat="49.0162" lon="0.8074">
        <ele>115</ele>
        <time>2012-05-12T15:02:04Z</time>
      </trkpt>
      <trkpt lat="49.01667" lon="0.80726">
        <ele>114</ele>
        <time>2012-05-12T15:02:16Z</time>
      </trkpt>
      <trkpt lat="49.01716" lon="0.80726">
        <ele>115</ele>
        <time>2012-05-12T15:02:27Z</time>
      </trkpt>
      <trkpt lat="49.01767" lon="0.80726">
        <ele>116</ele>
        <time>2012-05-12T15:02:38Z</time>
      </trkpt>
      <trkpt lat="49.0182" lon="0.80732">
        <ele>116</ele>
        <time>2012-05-12T15:02:50Z</time>
      </trkpt>
      <trkpt lat="49.01875" lon="0.80729">
        <ele>117</ele>
        <time>2012-05-12T15:03:05Z</time>
      </trkpt>
      <trkpt lat="49.01926" lon="0.80744">
        <ele>117</ele>
        <time>2012-05-12T15:03:17Z</time>
      </trkpt>
      <trkpt lat="49.01973" lon="0.80727">
        <ele>116</ele>
        <time>2012-05-12T15:03:30Z</time>
      </trkpt>
      <trkpt lat="49.02019" lon="0.80713">
        <ele>115</ele>
        <time>2012-05-12T15:03:46Z</time>
      </trkpt>
      <trkpt lat="49.0207" lon="0.80715">
        <ele>114</ele>
        <time>2012-05-12T15:03:58Z</time>
      </trkpt>
      <trkpt lat="49.02117" lon="0.80722">
        <ele>115</ele>
        <time>2012-05-12T15:04:18Z</time>
      </trkpt>
      <trkpt lat="49.02163" lon="0.80709">
        <ele>115</ele>
        <time>2012-05-12T15:04:33Z</time>
      </trkpt>
      <trkpt lat="49.02185" lon="0.80651">
        <ele>117</ele>
        <time>2012-05-12T15:04:45Z</time>
      </trkpt>
      <trkpt lat="49.02195" lon="0.80572">
        <ele>116</ele>
        <time>2012-05-12T15:04:59Z</time>
      </trkpt>
      <trkpt lat="49.02195" lon="0.80497">
        <ele>117</ele>
        <time>2012-05-12T15:05:11Z</time>
      </trkpt>
      <trkpt lat="49.02194" lon="0.80424">
        <ele>119</ele>
        <time>2012-05-12T15:05:23Z</time>
      </trkpt>
      <trkpt lat="49.02217" lon="0.80401">
        <ele>123</ele>
        <time>2012-05-12T15:05:39Z</time>
      </trkpt>
      <trkpt lat="49.02264" lon="0.80428">
        <ele>123</ele>
        <time>2012-05-12T15:05:51Z</time>
      </trkpt>
      <trkpt lat="49.02315" lon="0.8045">
        <ele>124</ele>
        <time>2012-05-12T15:06:02Z</time>
      </trkpt>
      <trkpt lat="49.0237" lon="0.80483">
        <ele>128</ele>
        <time>2012-05-12T15:06:13Z</time>
      </trkpt>
      <trkpt lat="49.02413" lon="0.80523">
        <ele>122</ele>
        <time>2012-05-12T15:06:22Z</time>
      </trkpt>
      <trkpt lat="49.02449" lon="0.80568">
        <ele>125</ele>
        <time>2012-05-12T15:06:30Z</time>
      </trkpt>
      <trkpt lat="49.02486" lon="0.80613">
        <ele>119</ele>
        <time>2012-05-12T15:06:39Z</time>
      </trkpt>
      <trkpt lat="49.02515" lon="0.8067">
        <ele>120</ele>
        <time>2012-05-12T15:06:48Z</time>
      </trkpt>
      <trkpt lat="49.02546" lon="0.80729">
        <ele>122</ele>
        <time>2012-05-12T15:06:56Z</time>
      </trkpt>
      <trkpt lat="49.02579" lon="0.80784">
        <ele>118</ele>
        <time>2012-05-12T15:07:04Z</time>
      </trkpt>
      <trkpt lat="49.02616" lon="0.80827">
        <ele>125</ele>
        <time>2012-05-12T15:07:12Z</time>
      </trkpt>
      <trkpt lat="49.02641" lon="0.80889">
        <ele>120</ele>
        <time>2012-05-12T15:07:21Z</time>
      </trkpt>
      <trkpt lat="49.02667" lon="0.80953">
        <ele>115</ele>
        <time>2012-05-12T15:07:30Z</time>
      </trkpt>
      <trkpt lat="49.02685" lon="0.81019">
        <ele>111</ele>
        <time>2012-05-12T15:07:39Z</time>
      </trkpt>
      <trkpt lat="49.02706" lon="0.8108">
        <ele>109</ele>
        <time>2012-05-12T15:07:50Z</time>
      </trkpt>
      <trkpt lat="49.02729" lon="0.81141">
        <ele>108</ele>
        <time>2012-05-12T15:08:01Z</time>
      </trkpt>
      <trkpt lat="49.02769" lon="0.81181">
        <ele>106</ele>
        <time>2012-05-12T15:08:12Z</time>
      </trkpt>
      <trkpt lat="49.02805" lon="0.81222">
        <ele>104</ele>
        <time>2012-05-12T15:08:30Z</time>
      </trkpt>
      <trkpt lat="49.02841" lon="0.81198">
        <ele>104</ele>
        <time>2012-05-12T15:10:07Z</time>
      </trkpt>
      <trkpt lat="49.02803" lon="0.81235">
        <ele>104</ele>
        <time>2012-05-12T15:10:27Z</time>
      </trkpt>
      <trkpt lat="49.02758" lon="0.81267">
        <ele>104</ele>
        <time>2012-05-12T15:10:38Z</time>
      </trkpt>
      <trkpt lat="49.02723" lon="0.81312">
        <ele>105</ele>
        <time>2012-05-12T15:10:50Z</time>
      </trkpt>
      <trkpt lat="49.0269" lon="0.81358">
        <ele>105</ele>
        <time>2012-05-12T15:11:12Z</time>
      </trkpt>
      <trkpt lat="49.02698" lon="0.81419">
        <ele>106</ele>
        <time>2012-05-12T15:11:27Z</time>
      </trkpt>
      <trkpt lat="49.02724" lon="0.81477">
        <ele>106</ele>
        <time>2012-05-12T15:11:39Z</time>
      </trkpt>
      <trkpt lat="49.02749" lon="0.81536">
        <ele>105</ele>
        <time>2012-05-12T15:11:51Z</time>
      </trkpt>
      <trkpt lat="49.02775" lon="0.81598">
        <ele>105</ele>
        <time>2012-05-12T15:12:03Z</time>
      </trkpt>
      <trkpt lat="49.02801" lon="0.81659">
        <ele>105</ele>
        <time>2012-05-12T15:12:15Z</time>
      </trkpt>
      <trkpt lat="49.02827" lon="0.81719">
        <ele>106</ele>
        <time>2012-05-12T15:12:27Z</time>
      </trkpt>
      <trkpt lat="49.02852" lon="0.81779">
        <ele>106</ele>
        <time>2012-05-12T15:12:40Z</time>
      </trkpt>
      <trkpt lat="49.02877" lon="0.8184">
        <ele>110</ele>
        <time>2012-05-12T15:12:54Z</time>
      </trkpt>
      <trkpt lat="49.02842" lon="0.81883">
        <ele>112</ele>
        <time>2012-05-12T15:13:09Z</time>
      </trkpt>
      <trkpt lat="49.028" lon="0.81918">
        <ele>118</ele>
        <time>2012-05-12T15:13:22Z</time>
      </trkpt>
      <trkpt lat="49.02758" lon="0.81949">
        <ele>119</ele>
        <time>2012-05-12T15:13:34Z</time>
      </trkpt>
      <trkpt lat="49.02713" lon="0.81978">
        <ele>117</ele>
        <time>2012-05-12T15:13:45Z</time>
      </trkpt>
      <trkpt lat="49.02671" lon="0.82015">
        <ele>120</ele>
        <time>2012-05-12T15:13:56Z</time>
      </trkpt>
      <trkpt lat="49.02654" lon="0.82079">
        <ele>124</ele>
        <time>2012-05-12T15:14:14Z</time>
      </trkpt>
      <trkpt lat="49.0267" lon="0.82144">
        <ele>134</ele>
        <time>2012-05-12T15:14:41Z</time>
      </trkpt>
      <trkpt lat="49.02686" lon="0.82219">
        <ele>143</ele>
        <time>2012-05-12T15:15:14Z</time>
      </trkpt>
      <trkpt lat="49.0273" lon="0.8225">
        <ele>149</ele>
        <time>2012-05-12T15:15:49Z</time>
      </trkpt>
      <trkpt lat="49.02775" lon="0.82287">
        <ele>151</ele>
        <time>2012-05-12T15:16:15Z</time>
      </trkpt>
      <trkpt lat="49.02835" lon="0.82322">
        <ele>153</ele>
        <time>2012-05-12T15:16:40Z</time>
      </trkpt>
      <trkpt lat="49.02899" lon="0.82352">
        <ele>155</ele>
        <time>2012-05-12T15:17:00Z</time>
      </trkpt>
      <trkpt lat="49.02976" lon="0.8237">
        <ele>153</ele>
        <time>2012-05-12T15:17:21Z</time>
      </trkpt>
      <trkpt lat="49.03025" lon="0.82416">
        <ele>152</ele>
        <time>2012-05-12T15:20:34Z</time>
      </trkpt>
      <trkpt lat="49.03066" lon="0.82445">
        <ele>152</ele>
        <time>2012-05-12T15:20:47Z</time>
      </trkpt>
      <trkpt lat="49.0311" lon="0.82425">
        <ele>153</ele>
        <time>2012-05-12T15:20:59Z</time>
      </trkpt>
      <trkpt lat="49.03155" lon="0.82397">
        <ele>153</ele>
        <time>2012-05-12T15:21:11Z</time>
      </trkpt>
      <trkpt lat="49.03194" lon="0.8236">
        <ele>153</ele>
        <time>2012-05-12T15:21:21Z</time>
      </trkpt>
      <trkpt lat="49.0324" lon="0.8234">
        <ele>153</ele>
        <time>2012-05-12T15:21:32Z</time>
      </trkpt>
      <trkpt lat="49.03283" lon="0.82309">
        <ele>153</ele>
        <time>2012-05-12T15:21:42Z</time>
      </trkpt>
      <trkpt lat="49.03326" lon="0.82272">
        <ele>154</ele>
        <time>2012-05-12T15:21:53Z</time>
      </trkpt>
      <trkpt lat="49.0337" lon="0.82236">
        <ele>153</ele>
        <time>2012-05-12T15:22:03Z</time>
      </trkpt>
      <trkpt lat="49.03414" lon="0.822">
        <ele>152</ele>
        <time>2012-05-12T15:22:13Z</time>
      </trkpt>
      <trkpt lat="49.03455" lon="0.82167">
        <ele>150</ele>
        <time>2012-05-12T15:22:22Z</time>
      </trkpt>
      <trkpt lat="49.03492" lon="0.82121">
        <ele>152</ele>
        <time>2012-05-12T15:22:32Z</time>
      </trkpt>
      <trkpt lat="49.03519" lon="0.82062">
        <ele>152</ele>
        <time>2012-05-12T15:22:42Z</time>
      </trkpt>
      <trkpt lat="49.03567" lon="0.82045">
        <ele>152</ele>
        <time>2012-05-12T15:22:52Z</time>
      </trkpt>
      <trkpt lat="49.03613" lon="0.82037">
        <ele>151</ele>
        <time>2012-05-12T15:23:02Z</time>
      </trkpt>
      <trkpt lat="49.03659" lon="0.82032">
        <ele>151</ele>
        <time>2012-05-12T15:23:12Z</time>
      </trkpt>
      <trkpt lat="49.03707" lon="0.82028">
        <ele>153</ele>
        <time>2012-05-12T15:23:22Z</time>
      </trkpt>
      <trkpt lat="49.03757" lon="0.8202">
        <ele>155</ele>
        <time>2012-05-12T15:23:33Z</time>
      </trkpt>
      <trkpt lat="49.03812" lon="0.82013">
        <ele>157</ele>
        <time>2012-05-12T15:23:45Z</time>
      </trkpt>
      <trkpt lat="49.03861" lon="0.8201">
        <ele>157</ele>
        <time>2012-05-12T15:23:56Z</time>
      </trkpt>
      <trkpt lat="49.03918" lon="0.82001">
        <ele>156</ele>
        <time>2012-05-12T15:24:07Z</time>
      </trkpt>
      <trkpt lat="49.03973" lon="0.81994">
        <ele>156</ele>
        <time>2012-05-12T15:24:17Z</time>
      </trkpt>
      <trkpt lat="49.04024" lon="0.81984">
        <ele>155</ele>
        <time>2012-05-12T15:24:27Z</time>
      </trkpt>
      <trkpt lat="49.04071" lon="0.81974">
        <ele>155</ele>
        <time>2012-05-12T15:24:36Z</time>
      </trkpt>
      <trkpt lat="49.0412" lon="0.8196">
        <ele>154</ele>
        <time>2012-05-12T15:24:46Z</time>
      </trkpt>
      <trkpt lat="49.04167" lon="0.81948">
        <ele>155</ele>
        <time>2012-05-12T15:24:56Z</time>
      </trkpt>
      <trkpt lat="49.04216" lon="0.81939">
        <ele>155</ele>
        <time>2012-05-12T15:25:07Z</time>
      </trkpt>
      <trkpt lat="49.0426" lon="0.81918">
        <ele>155</ele>
        <time>2012-05-12T15:25:17Z</time>
      </trkpt>
      <trkpt lat="49.04303" lon="0.81885">
        <ele>156</ele>
        <time>2012-05-12T15:25:27Z</time>
      </trkpt>
      <trkpt lat="49.04349" lon="0.81852">
        <ele>155</ele>
        <time>2012-05-12T15:25:37Z</time>
      </trkpt>
      <trkpt lat="49.04395" lon="0.8182">
        <ele>155</ele>
        <time>2012-05-12T15:25:47Z</time>
      </trkpt>
      <trkpt lat="49.04438" lon="0.81789">
        <ele>155</ele>
        <time>2012-05-12T15:25:56Z</time>
      </trkpt>
      <trkpt lat="49.04486" lon="0.81762">
        <ele>155</ele>
        <time>2012-05-12T15:26:05Z</time>
      </trkpt>
      <trkpt lat="49.04533" lon="0.81737">
        <ele>155</ele>
        <time>2012-05-12T15:26:14Z</time>
      </trkpt>
      <trkpt lat="49.04577" lon="0.81713">
        <ele>155</ele>
        <time>2012-05-12T15:26:23Z</time>
      </trkpt>
      <trkpt lat="49.04622" lon="0.81688">
        <ele>155</ele>
        <time>2012-05-12T15:26:32Z</time>
      </trkpt>
      <trkpt lat="49.04665" lon="0.81665">
        <ele>156</ele>
        <time>2012-05-12T15:26:41Z</time>
      </trkpt>
      <trkpt lat="49.04708" lon="0.81643">
        <ele>157</ele>
        <time>2012-05-12T15:26:50Z</time>
      </trkpt>
      <trkpt lat="49.04746" lon="0.81651">
        <ele>157</ele>
        <time>2012-05-12T15:27:00Z</time>
      </trkpt>
      <trkpt lat="49.04776" lon="0.81703">
        <ele>156</ele>
        <time>2012-05-12T15:27:09Z</time>
      </trkpt>
      <trkpt lat="49.04821" lon="0.81705">
        <ele>155</ele>
        <time>2012-05-12T15:27:18Z</time>
      </trkpt>
      <trkpt lat="49.04861" lon="0.81668">
        <ele>154</ele>
        <time>2012-05-12T15:27:28Z</time>
      </trkpt>
      <trkpt lat="49.04889" lon="0.81628">
        <ele>154</ele>
        <time>2012-05-12T15:27:42Z</time>
      </trkpt>
      <trkpt lat="49.04935" lon="0.81605">
        <ele>154</ele>
        <time>2012-05-12T15:27:55Z</time>
      </trkpt>
      <trkpt lat="49.04979" lon="0.8158">
        <ele>155</ele>
        <time>2012-05-12T15:28:06Z</time>
      </trkpt>
      <trkpt lat="49.05012" lon="0.81545">
        <ele>154</ele>
        <time>2012-05-12T15:28:22Z</time>
      </trkpt>
      <trkpt lat="49.04999" lon="0.81484">
        <ele>156</ele>
        <time>2012-05-12T15:31:12Z</time>
      </trkpt>
      <trkpt lat="49.05032" lon="0.8146">
        <ele>156</ele>
        <time>2012-05-12T15:31:25Z</time>
      </trkpt>
      <trkpt lat="49.05074" lon="0.81472">
        <ele>155</ele>
        <time>2012-05-12T15:31:37Z</time>
      </trkpt>
      <trkpt lat="49.05121" lon="0.81442">
        <ele>154</ele>
        <time>2012-05-12T15:31:48Z</time>
      </trkpt>
      <trkpt lat="49.05159" lon="0.81399">
        <ele>154</ele>
        <time>2012-05-12T15:31:59Z</time>
      </trkpt>
      <trkpt lat="49.05193" lon="0.8134">
        <ele>153</ele>
        <time>2012-05-12T15:32:11Z</time>
      </trkpt>
      <trkpt lat="49.05216" lon="0.81275">
        <ele>153</ele>
        <time>2012-05-12T15:32:22Z</time>
      </trkpt>
      <trkpt lat="49.05256" lon="0.81261">
        <ele>151</ele>
        <time>2012-05-12T15:34:49Z</time>
      </trkpt>
      <trkpt lat="49.05307" lon="0.81254">
        <ele>148</ele>
        <time>2012-05-12T15:34:58Z</time>
      </trkpt>
      <trkpt lat="49.05352" lon="0.81264">
        <ele>147</ele>
        <time>2012-05-12T15:35:05Z</time>
      </trkpt>
      <trkpt lat="49.05393" lon="0.81296">
        <ele>146</ele>
        <time>2012-05-12T15:35:12Z</time>
      </trkpt>
      <trkpt lat="49.05437" lon="0.81319">
        <ele>147</ele>
        <time>2012-05-12T15:35:19Z</time>
      </trkpt>
      <trkpt lat="49.05485" lon="0.81342">
        <ele>146</ele>
        <time>2012-05-12T15:35:27Z</time>
      </trkpt>
      <trkpt lat="49.05531" lon="0.81375">
        <ele>145</ele>
        <time>2012-05-12T15:35:35Z</time>
      </trkpt>
      <trkpt lat="49.05577" lon="0.81395">
        <ele>144</ele>
        <time>2012-05-12T15:35:42Z</time>
      </trkpt>
      <trkpt lat="49.05618" lon="0.81434">
        <ele>141</ele>
        <time>2012-05-12T15:35:49Z</time>
      </trkpt>
      <trkpt lat="49.05646" lon="0.81495">
        <ele>140</ele>
        <time>2012-05-12T15:35:55Z</time>
      </trkpt>
      <trkpt lat="49.05687" lon="0.81517">
        <ele>141</ele>
        <time>2012-05-12T15:36:03Z</time>
      </trkpt>
      <trkpt lat="49.05734" lon="0.81479">
        <ele>143</ele>
        <time>2012-05-12T15:36:21Z</time>
      </trkpt>
      <trkpt lat="49.05805" lon="0.81474">
        <ele>144</ele>
        <time>2012-05-12T15:36:40Z</time>
      </trkpt>
      <trkpt lat="49.05867" lon="0.81449">
        <ele>145</ele>
        <time>2012-05-12T15:36:52Z</time>
      </trkpt>
      <trkpt lat="49.05917" lon="0.81427">
        <ele>144</ele>
        <time>2012-05-12T15:37:02Z</time>
      </trkpt>
      <trkpt lat="49.05966" lon="0.81416">
        <ele>143</ele>
        <time>2012-05-12T15:37:40Z</time>
      </trkpt>
      <trkpt lat="49.06015" lon="0.81414">
        <ele>143</ele>
        <time>2012-05-12T15:37:52Z</time>
      </trkpt>
      <trkpt lat="49.06073" lon="0.81408">
        <ele>142</ele>
        <time>2012-05-12T15:38:06Z</time>
      </trkpt>
      <trkpt lat="49.06126" lon="0.814">
        <ele>142</ele>
        <time>2012-05-12T15:38:17Z</time>
      </trkpt>
      <trkpt lat="49.06172" lon="0.81381">
        <ele>141</ele>
        <time>2012-05-12T15:38:28Z</time>
      </trkpt>
      <trkpt lat="49.06215" lon="0.81353">
        <ele>142</ele>
        <time>2012-05-12T15:38:40Z</time>
      </trkpt>
      <trkpt lat="49.06253" lon="0.81314">
        <ele>141</ele>
        <time>2012-05-12T15:38:51Z</time>
      </trkpt>
      <trkpt lat="49.06309" lon="0.81266">
        <ele>140</ele>
        <time>2012-05-12T15:39:08Z</time>
      </trkpt>
      <trkpt lat="49.06371" lon="0.81204">
        <ele>138</ele>
        <time>2012-05-12T15:39:21Z</time>
      </trkpt>
      <trkpt lat="49.06425" lon="0.81159">
        <ele>135</ele>
        <time>2012-05-12T15:43:07Z</time>
      </trkpt>
      <trkpt lat="49.06404" lon="0.81088">
        <ele>135</ele>
        <time>2012-05-12T15:43:17Z</time>
      </trkpt>
      <trkpt lat="49.06386" lon="0.81017">
        <ele>136</ele>
        <time>2012-05-12T15:43:25Z</time>
      </trkpt>
      <trkpt lat="49.06392" lon="0.80944">
        <ele>134</ele>
        <time>2012-05-12T15:43:33Z</time>
      </trkpt>
      <trkpt lat="49.0643" lon="0.80889">
        <ele>132</ele>
        <time>2012-05-12T15:43:44Z</time>
      </trkpt>
      <trkpt lat="49.06453" lon="0.80809">
        <ele>130</ele>
        <time>2012-05-12T15:43:53Z</time>
      </trkpt>
      <trkpt lat="49.0645" lon="0.80732">
        <ele>127</ele>
        <time>2012-05-12T15:44:00Z</time>
      </trkpt>
      <trkpt lat="49.06444" lon="0.80659">
        <ele>125</ele>
        <time>2012-05-12T15:44:07Z</time>
      </trkpt>
      <trkpt lat="49.06448" lon="0.80572">
        <ele>122</ele>
        <time>2012-05-12T15:44:16Z</time>
      </trkpt>
      <trkpt lat="49.06486" lon="0.80505">
        <ele>120</ele>
        <time>2012-05-12T15:44:23Z</time>
      </trkpt>
      <trkpt lat="49.06507" lon="0.80438">
        <ele>121</ele>
        <time>2012-05-12T15:44:30Z</time>
      </trkpt>
      <trkpt lat="49.06533" lon="0.80374">
        <ele>118</ele>
        <time>2012-05-12T15:44:37Z</time>
      </trkpt>
      <trkpt lat="49.06583" lon="0.80352">
        <ele>116</ele>
        <time>2012-05-12T15:44:44Z</time>
      </trkpt>
      <trkpt lat="49.06633" lon="0.80328">
        <ele>118</ele>
        <time>2012-05-12T15:44:51Z</time>
      </trkpt>
      <trkpt lat="49.06661" lon="0.80274">
        <ele>118</ele>
        <time>2012-05-12T15:44:58Z</time>
      </trkpt>
      <trkpt lat="49.06701" lon="0.80231">
        <ele>118</ele>
        <time>2012-05-12T15:45:05Z</time>
      </trkpt>
      <trkpt lat="49.06749" lon="0.80202">
        <ele>117</ele>
        <time>2012-05-12T15:45:12Z</time>
      </trkpt>
      <trkpt lat="49.06796" lon="0.80183">
        <ele>118</ele>
        <time>2012-05-12T15:45:19Z</time>
      </trkpt>
      <trkpt lat="49.06841" lon="0.80163">
        <ele>117</ele>
        <time>2012-05-12T15:45:26Z</time>
      </trkpt>
      <trkpt lat="49.06877" lon="0.80122">
        <ele>120</ele>
        <time>2012-05-12T15:45:33Z</time>
      </trkpt>
      <trkpt lat="49.06906" lon="0.80071">
        <ele>118</ele>
        <time>2012-05-12T15:45:40Z</time>
      </trkpt>
      <trkpt lat="49.06935" lon="0.80008">
        <ele>119</ele>
        <time>2012-05-12T15:45:49Z</time>
      </trkpt>
      <trkpt lat="49.06962" lon="0.79945">
        <ele>116</ele>
        <time>2012-05-12T15:45:57Z</time>
      </trkpt>
      <trkpt lat="49.06986" lon="0.79888">
        <ele>114</ele>
        <time>2012-05-12T15:47:18Z</time>
      </trkpt>
      <trkpt lat="49.0703" lon="0.7987">
        <ele>123</ele>
        <time>2012-05-12T15:47:34Z</time>
      </trkpt>
      <trkpt lat="49.07055" lon="0.79802">
        <ele>123</ele>
        <time>2012-05-12T15:47:52Z</time>
      </trkpt>
      <trkpt lat="49.07058" lon="0.79723">
        <ele>123</ele>
        <time>2012-05-12T15:48:08Z</time>
      </trkpt>
      <trkpt lat="49.07065" lon="0.79646">
        <ele>122</ele>
        <time>2012-05-12T15:48:28Z</time>
      </trkpt>
      <trkpt lat="49.07099" lon="0.79581">
        <ele>127</ele>
        <time>2012-05-12T15:49:01Z</time>
      </trkpt>
      <trkpt lat="49.07155" lon="0.79539">
        <ele>131</ele>
        <time>2012-05-12T15:49:37Z</time>
      </trkpt>
      <trkpt lat="49.07202" lon="0.79534">
        <ele>136</ele>
        <time>2012-05-12T15:50:05Z</time>
      </trkpt>
      <trkpt lat="49.07241" lon="0.79492">
        <ele>135</ele>
        <time>2012-05-12T15:50:25Z</time>
      </trkpt>
      <trkpt lat="49.07277" lon="0.79448">
        <ele>138</ele>
        <time>2012-05-12T15:50:44Z</time>
      </trkpt>
      <trkpt lat="49.07311" lon="0.79401">
        <ele>137</ele>
        <time>2012-05-12T15:51:01Z</time>
      </trkpt>
      <trkpt lat="49.07342" lon="0.7935">
        <ele>139</ele>
        <time>2012-05-12T15:51:17Z</time>
      </trkpt>
      <trkpt lat="49.07366" lon="0.79286">
        <ele>138</ele>
        <time>2012-05-12T15:51:31Z</time>
      </trkpt>
      <trkpt lat="49.0739" lon="0.79224">
        <ele>137</ele>
        <time>2012-05-12T15:51:44Z</time>
      </trkpt>
      <trkpt lat="49.07431" lon="0.7924">
        <ele>141</ele>
        <time>2012-05-12T15:52:01Z</time>
      </trkpt>
      <trkpt lat="49.07474" lon="0.7927">
        <ele>145</ele>
        <time>2012-05-12T15:52:23Z</time>
      </trkpt>
      <trkpt lat="49.0752" lon="0.79297">
        <ele>147</ele>
        <time>2012-05-12T15:52:40Z</time>
      </trkpt>
      <trkpt lat="49.07568" lon="0.7932">
        <ele>147</ele>
        <time>2012-05-12T15:52:54Z</time>
      </trkpt>
      <trkpt lat="49.07611" lon="0.79341">
        <ele>147</ele>
        <time>2012-05-12T15:53:09Z</time>
      </trkpt>
      <trkpt lat="49.07658" lon="0.79355">
        <ele>147</ele>
        <time>2012-05-12T15:53:22Z</time>
      </trkpt>
      <trkpt lat="49.07705" lon="0.79351">
        <ele>147</ele>
        <time>2012-05-12T15:53:34Z</time>
      </trkpt>
      <trkpt lat="49.07749" lon="0.79336">
        <ele>148</ele>
        <time>2012-05-12T15:53:46Z</time>
      </trkpt>
      <trkpt lat="49.07788" lon="0.79309">
        <ele>149</ele>
        <time>2012-05-12T15:53:59Z</time>
      </trkpt>
      <trkpt lat="49.0779" lon="0.79238">
        <ele>151</ele>
        <time>2012-05-12T15:54:15Z</time>
      </trkpt>
      <trkpt lat="49.07781" lon="0.79168">
        <ele>151</ele>
        <time>2012-05-12T15:54:28Z</time>
      </trkpt>
      <trkpt lat="49.07765" lon="0.79094">
        <ele>148</ele>
        <time>2012-05-12T15:54:40Z</time>
      </trkpt>
      <trkpt lat="49.07771" lon="0.79021">
        <ele>145</ele>
        <time>2012-05-12T15:54:49Z</time>
      </trkpt>
      <trkpt lat="49.07787" lon="0.78955">
        <ele>143</ele>
        <time>2012-05-12T15:54:57Z</time>
      </trkpt>
      <trkpt lat="49.07799" lon="0.78886">
        <ele>140</ele>
        <time>2012-05-12T15:55:05Z</time>
      </trkpt>
      <trkpt lat="49.07815" lon="0.78815">
        <ele>135</ele>
        <time>2012-05-12T15:55:13Z</time>
      </trkpt>
      <trkpt lat="49.07825" lon="0.78712">
        <ele>124</ele>
        <time>2012-05-12T15:55:21Z</time>
      </trkpt>
      <trkpt lat="49.07824" lon="0.78636">
        <ele>117</ele>
        <time>2012-05-12T15:55:26Z</time>
      </trkpt>
      <trkpt lat="49.07817" lon="0.78557">
        <ele>112</ele>
        <time>2012-05-12T15:55:33Z</time>
      </trkpt>
      <trkpt lat="49.07807" lon="0.78484">
        <ele>107</ele>
        <time>2012-05-12T15:55:40Z</time>
      </trkpt>
      <trkpt lat="49.07787" lon="0.78419">
        <ele>105</ele>
        <time>2012-05-12T15:55:50Z</time>
      </trkpt>
      <trkpt lat="49.07809" lon="0.78383">
        <ele>101</ele>
        <time>2012-05-12T16:00:12Z</time>
      </trkpt>
      <trkpt lat="49.07819" lon="0.78316">
        <ele>97</ele>
        <time>2012-05-12T16:00:45Z</time>
      </trkpt>
      <trkpt lat="49.07825" lon="0.7824">
        <ele>94</ele>
        <time>2012-05-12T16:00:54Z</time>
      </trkpt>
      <trkpt lat="49.07858" lon="0.78196">
        <ele>95</ele>
        <time>2012-05-12T16:01:02Z</time>
      </trkpt>
      <trkpt lat="49.07907" lon="0.7818">
        <ele>96</ele>
        <time>2012-05-12T16:01:11Z</time>
      </trkpt>
      <trkpt lat="49.07955" lon="0.7815">
        <ele>96</ele>
        <time>2012-05-12T16:01:20Z</time>
      </trkpt>
      <trkpt lat="49.07997" lon="0.78121">
        <ele>96</ele>
        <time>2012-05-12T16:01:28Z</time>
      </trkpt>
      <trkpt lat="49.08036" lon="0.78078">
        <ele>97</ele>
        <time>2012-05-12T16:01:37Z</time>
      </trkpt>
      <trkpt lat="49.08066" lon="0.78021">
        <ele>97</ele>
        <time>2012-05-12T16:01:47Z</time>
      </trkpt>
      <trkpt lat="49.08093" lon="0.77961">
        <ele>103</ele>
        <time>2012-05-12T16:01:58Z</time>
      </trkpt>
      <trkpt lat="49.08112" lon="0.77894">
        <ele>99</ele>
        <time>2012-05-12T16:02:10Z</time>
      </trkpt>
      <trkpt lat="49.08139" lon="0.77841">
        <ele>100</ele>
        <time>2012-05-12T16:02:22Z</time>
      </trkpt>
      <trkpt lat="49.08152" lon="0.77775">
        <ele>96</ele>
        <time>2012-05-12T16:02:32Z</time>
      </trkpt>
      <trkpt lat="49.0818" lon="0.77718">
        <ele>99</ele>
        <time>2012-05-12T16:02:41Z</time>
      </trkpt>
      <trkpt lat="49.08209" lon="0.77666">
        <ele>95</ele>
        <time>2012-05-12T16:02:50Z</time>
      </trkpt>
      <trkpt lat="49.0824" lon="0.77611">
        <ele>95</ele>
        <time>2012-05-12T16:03:00Z</time>
      </trkpt>
      <trkpt lat="49.08277" lon="0.77572">
        <ele>102</ele>
        <time>2012-05-12T16:03:12Z</time>
      </trkpt>
      <trkpt lat="49.08323" lon="0.77516">
        <ele>106</ele>
        <time>2012-05-12T16:03:37Z</time>
      </trkpt>
      <trkpt lat="49.08357" lon="0.7747">
        <ele>113</ele>
        <time>2012-05-12T16:03:58Z</time>
      </trkpt>
      <trkpt lat="49.084" lon="0.7743">
        <ele>116</ele>
        <time>2012-05-12T16:04:20Z</time>
      </trkpt>
      <trkpt lat="49.08459" lon="0.77362">
        <ele>118</ele>
        <time>2012-05-12T16:04:49Z</time>
      </trkpt>
      <trkpt lat="49.0853" lon="0.77278">
        <ele>120</ele>
        <time>2012-05-12T16:05:32Z</time>
      </trkpt>
      <trkpt lat="49.08598" lon="0.77215">
        <ele>127</ele>
        <time>2012-05-12T16:06:07Z</time>
      </trkpt>
      <trkpt lat="49.08647" lon="0.77163">
        <ele>126</ele>
        <time>2012-05-12T16:06:35Z</time>
      </trkpt>
      <trkpt lat="49.0869" lon="0.7711">
        <ele>134</ele>
        <time>2012-05-12T16:07:02Z</time>
      </trkpt>
      <trkpt lat="49.08739" lon="0.7707">
        <ele>135</ele>
        <time>2012-05-12T16:07:23Z</time>
      </trkpt>
      <trkpt lat="49.08788" lon="0.77064">
        <ele>141</ele>
        <time>2012-05-12T16:15:22Z</time>
      </trkpt>
      <trkpt lat="49.08838" lon="0.77074">
        <ele>144</ele>
        <time>2012-05-12T16:15:36Z</time>
      </trkpt>
      <trkpt lat="49.08887" lon="0.77086">
        <ele>144</ele>
        <time>2012-05-12T16:15:48Z</time>
      </trkpt>
      <trkpt lat="49.08936" lon="0.77096">
        <ele>146</ele>
        <time>2012-05-12T16:16:00Z</time>
      </trkpt>
      <trkpt lat="49.08984" lon="0.77105">
        <ele>147</ele>
        <time>2012-05-12T16:16:12Z</time>
      </trkpt>
      <trkpt lat="49.0903" lon="0.77116">
        <ele>150</ele>
        <time>2012-05-12T16:16:25Z</time>
      </trkpt>
      <trkpt lat="49.0908" lon="0.77128">
        <ele>151</ele>
        <time>2012-05-12T16:16:38Z</time>
      </trkpt>
      <trkpt lat="49.09128" lon="0.77136">
        <ele>150</ele>
        <time>2012-05-12T16:16:50Z</time>
      </trkpt>
      <trkpt lat="49.09178" lon="0.77148">
        <ele>148</ele>
        <time>2012-05-12T16:17:02Z</time>
      </trkpt>
      <trkpt lat="49.09218" lon="0.77126">
        <ele>147</ele>
        <time>2012-05-12T16:17:15Z</time>
      </trkpt>
      <trkpt lat="49.09251" lon="0.77082">
        <ele>145</ele>
        <time>2012-05-12T16:17:33Z</time>
      </trkpt>
      <trkpt lat="49.09288" lon="0.77041">
        <ele>143</ele>
        <time>2012-05-12T16:17:56Z</time>
      </trkpt>
      <trkpt lat="49.09332" lon="0.77033">
        <ele>142</ele>
        <time>2012-05-12T16:18:08Z</time>
      </trkpt>
      <trkpt lat="49.09378" lon="0.77041">
        <ele>142</ele>
        <time>2012-05-12T16:18:17Z</time>
      </trkpt>
      <trkpt lat="49.09373" lon="0.76972">
        <ele>142</ele>
        <time>2012-05-12T16:18:30Z</time>
      </trkpt>
      <trkpt lat="49.09397" lon="0.76916">
        <ele>145</ele>
        <time>2012-05-12T16:18:44Z</time>
      </trkpt>
      <trkpt lat="49.09424" lon="0.76861">
        <ele>146</ele>
        <time>2012-05-12T16:19:02Z</time>
      </trkpt>
      <trkpt lat="49.09463" lon="0.76824">
        <ele>148</ele>
        <time>2012-05-12T16:19:48Z</time>
      </trkpt>
      <trkpt lat="49.09504" lon="0.76789">
        <ele>150</ele>
        <time>2012-05-12T16:20:04Z</time>
      </trkpt>
      <trkpt lat="49.09547" lon="0.76762">
        <ele>151</ele>
        <time>2012-05-12T16:20:23Z</time>
      </trkpt>
      <trkpt lat="49.0959" lon="0.76734">
        <ele>154</ele>
        <time>2012-05-12T16:20:40Z</time>
      </trkpt>
      <trkpt lat="49.09632" lon="0.767">
        <ele>154</ele>
        <time>2012-05-12T16:20:58Z</time>
      </trkpt>
      <trkpt lat="49.09675" lon="0.76668">
        <ele>154</ele>
        <time>2012-05-12T16:21:16Z</time>
      </trkpt>
      <trkpt lat="49.09717" lon="0.7663">
        <ele>154</ele>
        <time>2012-05-12T16:21:31Z</time>
      </trkpt>
      <trkpt lat="49.09759" lon="0.76582">
        <ele>154</ele>
        <time>2012-05-12T16:21:49Z</time>
      </trkpt>
      <trkpt lat="49.09809" lon="0.76525">
        <ele>153</ele>
        <time>2012-05-12T16:22:09Z</time>
      </trkpt>
      <trkpt lat="49.09856" lon="0.76472">
        <ele>154</ele>
        <time>2012-05-12T16:22:27Z</time>
      </trkpt>
      <trkpt lat="49.09902" lon="0.76414">
        <ele>154</ele>
        <time>2012-05-12T16:22:44Z</time>
      </trkpt>
      <trkpt lat="49.09942" lon="0.76369">
        <ele>153</ele>
        <time>2012-05-12T16:22:56Z</time>
      </trkpt>
      <trkpt lat="49.09982" lon="0.76331">
        <ele>155</ele>
        <time>2012-05-12T16:23:09Z</time>
      </trkpt>
      <trkpt lat="49.1002" lon="0.76292">
        <ele>155</ele>
        <time>2012-05-12T16:23:23Z</time>
      </trkpt>
      <trkpt lat="49.10063" lon="0.76252">
        <ele>155</ele>
        <time>2012-05-12T16:23:37Z</time>
      </trkpt>
      <trkpt lat="49.10109" lon="0.76215">
        <ele>155</ele>
        <time>2012-05-12T16:23:50Z</time>
      </trkpt>
      <trkpt lat="49.10156" lon="0.7618">
        <ele>154</ele>
        <time>2012-05-12T16:24:04Z</time>
      </trkpt>
      <trkpt lat="49.10204" lon="0.76152">
        <ele>152</ele>
        <time>2012-05-12T16:24:17Z</time>
      </trkpt>
      <trkpt lat="49.10247" lon="0.76113">
        <ele>152</ele>
        <time>2012-05-12T16:24:29Z</time>
      </trkpt>
      <trkpt lat="49.10288" lon="0.76077">
        <ele>149</ele>
        <time>2012-05-12T16:24:40Z</time>
      </trkpt>
      <trkpt lat="49.10326" lon="0.76037">
        <ele>148</ele>
        <time>2012-05-12T16:24:50Z</time>
      </trkpt>
      <trkpt lat="49.10364" lon="0.75999">
        <ele>147</ele>
        <time>2012-05-12T16:25:01Z</time>
      </trkpt>
      <trkpt lat="49.10403" lon="0.75963">
        <ele>148</ele>
        <time>2012-05-12T16:25:16Z</time>
      </trkpt>
      <trkpt lat="49.10444" lon="0.75928">
        <ele>148</ele>
        <time>2012-05-12T16:25:32Z</time>
      </trkpt>
      <trkpt lat="49.10484" lon="0.75892">
        <ele>150</ele>
        <time>2012-05-12T16:25:48Z</time>
      </trkpt>
      <trkpt lat="49.10524" lon="0.7585">
        <ele>149</ele>
        <time>2012-05-12T16:26:03Z</time>
      </trkpt>
      <trkpt lat="49.10563" lon="0.75806">
        <ele>147</ele>
        <time>2012-05-12T16:26:16Z</time>
      </trkpt>
      <trkpt lat="49.10601" lon="0.75766">
        <ele>145</ele>
        <time>2012-05-12T16:26:27Z</time>
      </trkpt>
      <trkpt lat="49.10641" lon="0.75724">
        <ele>144</ele>
        <time>2012-05-12T16:26:38Z</time>
      </trkpt>
      <trkpt lat="49.10678" lon="0.75686">
        <ele>143</ele>
        <time>2012-05-12T16:26:52Z</time>
      </trkpt>
      <trkpt lat="49.10716" lon="0.75651">
        <ele>144</ele>
        <time>2012-05-12T16:27:06Z</time>
      </trkpt>
      <trkpt lat="49.10757" lon="0.75619">
        <ele>144</ele>
        <time>2012-05-12T16:27:22Z</time>
      </trkpt>
      <trkpt lat="49.10799" lon="0.75593">
        <ele>144</ele>
        <time>2012-05-12T16:27:43Z</time>
      </trkpt>
      <trkpt lat="49.10842" lon="0.75563">
        <ele>143</ele>
        <time>2012-05-12T16:27:57Z</time>
      </trkpt>
      <trkpt lat="49.10887" lon="0.75533">
        <ele>142</ele>
        <time>2012-05-12T16:28:10Z</time>
      </trkpt>
      <trkpt lat="49.1093" lon="0.75503">
        <ele>142</ele>
        <time>2012-05-12T16:28:22Z</time>
      </trkpt>
      <trkpt lat="49.10971" lon="0.75474">
        <ele>142</ele>
        <time>2012-05-12T16:28:34Z</time>
      </trkpt>
      <trkpt lat="49.11015" lon="0.75449">
        <ele>144</ele>
        <time>2012-05-12T16:28:48Z</time>
      </trkpt>
      <trkpt lat="49.11059" lon="0.75429">
        <ele>144</ele>
        <time>2012-05-12T16:29:04Z</time>
      </trkpt>
      <trkpt lat="49.11103" lon="0.75407">
        <ele>144</ele>
        <time>2012-05-12T16:29:20Z</time>
      </trkpt>
      <trkpt lat="49.11148" lon="0.7539">
        <ele>145</ele>
        <time>2012-05-12T16:29:34Z</time>
      </trkpt>
      <trkpt lat="49.11195" lon="0.75375">
        <ele>147</ele>
        <time>2012-05-12T16:29:47Z</time>
      </trkpt>
      <trkpt lat="49.1124" lon="0.75365">
        <ele>148</ele>
        <time>2012-05-12T16:29:59Z</time>
      </trkpt>
      <trkpt lat="49.11288" lon="0.75367">
        <ele>149</ele>
        <time>2012-05-12T16:30:12Z</time>
      </trkpt>
      <trkpt lat="49.11336" lon="0.75372">
        <ele>148</ele>
        <time>2012-05-12T16:30:26Z</time>
      </trkpt>
      <trkpt lat="49.1139" lon="0.75381">
        <ele>147</ele>
        <time>2012-05-12T16:30:36Z</time>
      </trkpt>
      <trkpt lat="49.11442" lon="0.75393">
        <ele>147</ele>
        <time>2012-05-12T16:30:46Z</time>
      </trkpt>
      <trkpt lat="49.11491" lon="0.75391">
        <ele>148</ele>
        <time>2012-05-12T16:30:58Z</time>
      </trkpt>
      <trkpt lat="49.11543" lon="0.75377">
        <ele>149</ele>
        <time>2012-05-12T16:31:14Z</time>
      </trkpt>
      <trkpt lat="49.11598" lon="0.75357">
        <ele>150</ele>
        <time>2012-05-12T16:31:29Z</time>
      </trkpt>
      <trkpt lat="49.11643" lon="0.75341">
        <ele>150</ele>
        <time>2012-05-12T16:31:42Z</time>
      </trkpt>
      <trkpt lat="49.1169" lon="0.75321">
        <ele>149</ele>
        <time>2012-05-12T16:31:56Z</time>
      </trkpt>
      <trkpt lat="49.11749" lon="0.75303">
        <ele>148</ele>
        <time>2012-05-12T16:32:15Z</time>
      </trkpt>
      <trkpt lat="49.11721" lon="0.75359">
        <ele>150</ele>
        <time>2012-05-12T16:32:31Z</time>
      </trkpt>
      <trkpt lat="49.11693" lon="0.75417">
        <ele>150</ele>
        <time>2012-05-12T16:32:46Z</time>
      </trkpt>
      <trkpt lat="49.11682" lon="0.75483">
        <ele>149</ele>
        <time>2012-05-12T16:33:01Z</time>
      </trkpt>
      <trkpt lat="49.1168" lon="0.75558">
        <ele>149</ele>
        <time>2012-05-12T16:33:16Z</time>
      </trkpt>
      <trkpt lat="49.11692" lon="0.75628">
        <ele>149</ele>
        <time>2012-05-12T16:33:29Z</time>
      </trkpt>
      <trkpt lat="49.1168" lon="0.75693">
        <ele>148</ele>
        <time>2012-05-12T16:33:42Z</time>
      </trkpt>
      <trkpt lat="49.11659" lon="0.75758">
        <ele>147</ele>
        <time>2012-05-12T16:33:55Z</time>
      </trkpt>
      <trkpt lat="49.1164" lon="0.75826">
        <ele>147</ele>
        <time>2012-05-12T16:34:07Z</time>
      </trkpt>
      <trkpt lat="49.11619" lon="0.75892">
        <ele>147</ele>
        <time>2012-05-12T16:34:19Z</time>
      </trkpt>
      <trkpt lat="49.11592" lon="0.75951">
        <ele>147</ele>
        <time>2012-05-12T16:34:31Z</time>
      </trkpt>
      <trkpt lat="49.11557" lon="0.75998">
        <ele>147</ele>
        <time>2012-05-12T16:34:43Z</time>
      </trkpt>
      <trkpt lat="49.11525" lon="0.76046">
        <ele>149</ele>
        <time>2012-05-12T16:34:55Z</time>
      </trkpt>
      <trkpt lat="49.11504" lon="0.76107">
        <ele>150</ele>
        <time>2012-05-12T16:35:08Z</time>
      </trkpt>
      <trkpt lat="49.11481" lon="0.76171">
        <ele>149</ele>
        <time>2012-05-12T16:35:20Z</time>
      </trkpt>
      <trkpt lat="49.11474" lon="0.76241">
        <ele>148</ele>
        <time>2012-05-12T16:35:32Z</time>
      </trkpt>
      <trkpt lat="49.11478" lon="0.76305">
        <ele>147</ele>
        <time>2012-05-12T16:35:47Z</time>
      </trkpt>
      <trkpt lat="49.11471" lon="0.76373">
        <ele>146</ele>
        <time>2012-05-12T16:36:01Z</time>
      </trkpt>
      <trkpt lat="49.1143" lon="0.76388">
        <ele>146</ele>
        <time>2012-05-12T16:36:15Z</time>
      </trkpt>
      <trkpt lat="49.11388" lon="0.76413">
        <ele>147</ele>
        <time>2012-05-12T16:36:34Z</time>
      </trkpt>
      <trkpt lat="49.11349" lon="0.76447">
        <ele>147</ele>
        <time>2012-05-12T16:36:55Z</time>
      </trkpt>
      <trkpt lat="49.11307" lon="0.76468">
        <ele>147</ele>
        <time>2012-05-12T16:37:08Z</time>
      </trkpt>
      <trkpt lat="49.11317" lon="0.7654">
        <ele>147</ele>
        <time>2012-05-12T16:37:20Z</time>
      </trkpt>
      <trkpt lat="49.11325" lon="0.76608">
        <ele>147</ele>
        <time>2012-05-12T16:37:31Z</time>
      </trkpt>
      <trkpt lat="49.11344" lon="0.76673">
        <ele>148</ele>
        <time>2012-05-12T16:37:42Z</time>
      </trkpt>
      <trkpt lat="49.11368" lon="0.76734">
        <ele>148</ele>
        <time>2012-05-12T16:37:53Z</time>
      </trkpt>
      <trkpt lat="49.11385" lon="0.768">
        <ele>147</ele>
        <time>2012-05-12T16:38:04Z</time>
      </trkpt>
      <trkpt lat="49.11398" lon="0.76874">
        <ele>147</ele>
        <time>2012-05-12T16:38:15Z</time>
      </trkpt>
      <trkpt lat="49.1141" lon="0.76943">
        <ele>147</ele>
        <time>2012-05-12T16:38:24Z</time>
      </trkpt>
      <trkpt lat="49.11425" lon="0.77011">
        <ele>148</ele>
        <time>2012-05-12T16:38:34Z</time>
      </trkpt>
      <trkpt lat="49.11442" lon="0.77077">
        <ele>148</ele>
        <time>2012-05-12T16:38:50Z</time>
      </trkpt>
      <trkpt lat="49.1146" lon="0.77144">
        <ele>149</ele>
        <time>2012-05-12T16:39:04Z</time>
      </trkpt>
      <trkpt lat="49.11473" lon="0.77215">
        <ele>151</ele>
        <time>2012-05-12T16:39:18Z</time>
      </trkpt>
      <trkpt lat="49.11477" lon="0.77286">
        <ele>151</ele>
        <time>2012-05-12T16:39:32Z</time>
      </trkpt>
      <trkpt lat="49.11479" lon="0.77356">
        <ele>152</ele>
        <time>2012-05-12T16:39:46Z</time>
      </trkpt>
      <trkpt lat="49.11481" lon="0.77424">
        <ele>152</ele>
        <time>2012-05-12T16:40:07Z</time>
      </trkpt>
      <trkpt lat="49.11481" lon="0.77496">
        <ele>152</ele>
        <time>2012-05-12T16:40:21Z</time>
      </trkpt>
      <trkpt lat="49.11476" lon="0.77565">
        <ele>152</ele>
        <time>2012-05-12T16:40:33Z</time>
      </trkpt>
      <trkpt lat="49.1147" lon="0.77634">
        <ele>152</ele>
        <time>2012-05-12T16:40:45Z</time>
      </trkpt>
      <trkpt lat="49.11469" lon="0.77706">
        <ele>152</ele>
        <time>2012-05-12T16:40:57Z</time>
      </trkpt>
      <trkpt lat="49.11471" lon="0.77777">
        <ele>152</ele>
        <time>2012-05-12T16:41:08Z</time>
      </trkpt>
      <trkpt lat="49.11478" lon="0.77846">
        <ele>152</ele>
        <time>2012-05-12T16:41:19Z</time>
      </trkpt>
      <trkpt lat="49.1149" lon="0.77917">
        <ele>151</ele>
        <time>2012-05-12T16:41:30Z</time>
      </trkpt>
      <trkpt lat="49.11506" lon="0.77982">
        <ele>151</ele>
        <time>2012-05-12T16:41:41Z</time>
      </trkpt>
      <trkpt lat="49.11523" lon="0.7805">
        <ele>151</ele>
        <time>2012-05-12T16:41:52Z</time>
      </trkpt>
      <trkpt lat="49.11539" lon="0.78117">
        <ele>150</ele>
        <time>2012-05-12T16:42:02Z</time>
      </trkpt>
      <trkpt lat="49.11557" lon="0.78179">
        <ele>149</ele>
        <time>2012-05-12T16:42:12Z</time>
      </trkpt>
      <trkpt lat="49.11578" lon="0.78241">
        <ele>148</ele>
        <time>2012-05-12T16:42:22Z</time>
      </trkpt>
      <trkpt lat="49.11602" lon="0.78303">
        <ele>147</ele>
        <time>2012-05-12T16:42:32Z</time>
      </trkpt>
      <trkpt lat="49.11627" lon="0.78366">
        <ele>147</ele>
        <time>2012-05-12T16:42:42Z</time>
      </trkpt>
      <trkpt lat="49.11655" lon="0.78425">
        <ele>147</ele>
        <time>2012-05-12T16:42:52Z</time>
      </trkpt>
      <trkpt lat="49.11682" lon="0.78484">
        <ele>146</ele>
        <time>2012-05-12T16:43:02Z</time>
      </trkpt>
      <trkpt lat="49.11709" lon="0.78541">
        <ele>145</ele>
        <time>2012-05-12T16:43:12Z</time>
      </trkpt>
      <trkpt lat="49.11734" lon="0.78601">
        <ele>145</ele>
        <time>2012-05-12T16:43:22Z</time>
      </trkpt>
      <trkpt lat="49.11713" lon="0.78651">
        <ele>145</ele>
        <time>2012-05-12T16:43:34Z</time>
      </trkpt>
      <trkpt lat="49.11673" lon="0.78689">
        <ele>145</ele>
        <time>2012-05-12T16:43:45Z</time>
      </trkpt>
      <trkpt lat="49.11633" lon="0.78732">
        <ele>146</ele>
        <time>2012-05-12T16:43:56Z</time>
      </trkpt>
      <trkpt lat="49.11598" lon="0.78775">
        <ele>146</ele>
        <time>2012-05-12T16:44:06Z</time>
      </trkpt>
      <trkpt lat="49.1156" lon="0.78817">
        <ele>147</ele>
        <time>2012-05-12T16:44:17Z</time>
      </trkpt>
      <trkpt lat="49.11521" lon="0.78857">
        <ele>148</ele>
        <time>2012-05-12T16:44:28Z</time>
      </trkpt>
      <trkpt lat="49.11485" lon="0.7887">
        <ele>148</ele>
        <time>2012-05-12T16:44:44Z</time>
      </trkpt>
      <trkpt lat="49.11482" lon="0.78867">
        <ele>148</ele>
        <time>2012-05-12T17:07:59Z</time>
      </trkpt>
      <trkpt lat="49.11487" lon="0.7886">
        <ele>148</ele>
        <time>2012-05-12T17:25:56Z</time>
      </trkpt>
      <trkpt lat="49.11477" lon="0.78857">
        <ele>148</ele>
        <time>2012-05-12T17:35:25Z</time>
      </trkpt>
    </trkseg>
  </trk>
</gpx>